Time,TemperatureF,DewpointF,PressureIn,WindDirection,WindDirectionDegrees,WindSpeedMPH,WindSpeedGustMPH,Humidity,HourlyPrecipIn,Conditions,Clouds,dailyrainin,SoftwareType,DateUTC
2013-04-10 00:00:00,46.8,46.2,29.84,ESE,112,0.0,0.0,98,0.04,RA,,0.00,WeatherDisplay:10.37,2013-04-10 04:00:00,
2013-04-10 00:05:00,46.8,46.2,29.84,ESE,112,0.0,0.0,98,0.00,RA,,0.00,WeatherDisplay:10.37,2013-04-10 04:05:00,
2013-04-10 00:10:00,46.2,45.7,29.84,East,90,2.3,0.0,98,0.00,CLR,,0.04,WeatherDisplay:10.37,2013-04-10 04:10:00,
2013-04-10 00:11:00,46.2,45.7,29.84,ESE,112,2.3,0.0,98,0.00,CLR,,0.04,WeatherDisplay:10.37,2013-04-10 04:11:00,
2013-04-10 00:15:00,45.3,44.8,29.84,ESE,112,1.1,0.0,98,0.04,RA,,0.04,WeatherDisplay:10.37,2013-04-10 04:15:00,
2013-04-10 00:16:00,45.1,44.6,29.84,ESE,112,1.1,0.0,98,0.04,RA,,0.04,WeatherDisplay:10.37,2013-04-10 04:16:00,
2013-04-10 00:20:00,44.6,44.1,29.84,ESE,112,0.0,0.0,98,0.04,RA,,0.04,WeatherDisplay:10.37,2013-04-10 04:20:00,
2013-04-10 00:22:00,44.4,43.9,29.84,ESE,112,0.0,0.0,98,0.04,,,0.04,WeatherDisplay:10.37,2013-04-10 04:22:00,
2013-04-10 00:25:00,44.2,43.7,29.84,ESE,112,2.3,0.0,98,0.04,CLR,,0.04,WeatherDisplay:10.37,2013-04-10 04:25:00,
2013-04-10 00:26:00,44.2,43.7,29.84,ESE,112,2.3,0.0,98,0.04,CLR,,0.04,WeatherDisplay:10.37,2013-04-10 04:26:00,
2013-04-10 00:27:00,44.2,43.7,29.84,East,90,0.0,0.0,98,0.04,CLR,,0.04,WeatherDisplay:10.37,2013-04-10 04:27:00,
2013-04-10 00:30:00,44.2,43.7,29.84,ESE,112,0.0,0.0,98,0.04,CLR,,0.04,WeatherDisplay:10.37,2013-04-10 04:30:00,
2013-04-10 00:31:00,44.2,43.7,29.84,ESE,112,0.0,0.0,98,0.04,CLR,,0.04,WeatherDisplay:10.37,2013-04-10 04:31:00,
2013-04-10 00:32:00,44.2,43.7,29.84,ESE,112,0.0,0.0,98,0.04,CLR,,0.04,WeatherDisplay:10.37,2013-04-10 04:32:00,
2013-04-10 00:35:00,44.2,43.7,29.84,ESE,112,0.0,0.0,98,0.04,CLR,,0.04,WeatherDisplay:10.37,2013-04-10 04:35:00,
2013-04-10 00:37:00,44.2,43.7,29.84,ESE,112,0.0,0.0,98,0.04,CLR,,0.04,WeatherDisplay:10.37,2013-04-10 04:37:00,
2013-04-10 00:38:00,44.2,43.7,29.84,ESE,112,1.1,0.0,98,0.04,CLR,,0.04,WeatherDisplay:10.37,2013-04-10 04:38:00,
2013-04-10 00:40:00,44.2,43.7,29.84,ESE,112,0.0,0.0,98,0.04,CLR,,0.04,WeatherDisplay:10.37,2013-04-10 04:40:00,
2013-04-10 00:42:00,44.2,43.7,29.87,SE,135,0.0,0.0,98,0.04,CLR,,0.04,WeatherDisplay:10.37,2013-04-10 04:42:00,
2013-04-10 00:43:00,44.2,43.7,29.87,ESE,112,0.0,0.0,98,0.04,CLR,,0.04,WeatherDisplay:10.37,2013-04-10 04:43:00,
2013-04-10 00:46:00,44.4,43.9,29.87,ESE,112,0.0,0.0,98,0.04,CLR,,0.04,WeatherDisplay:10.37,2013-04-10 04:46:00,
2013-04-10 00:47:00,44.4,43.9,29.87,ESE,112,5.4,0.0,98,0.04,CLR,,0.04,WeatherDisplay:10.37,2013-04-10 04:47:00,
2013-04-10 00:48:00,44.4,43.9,29.87,ESE,112,5.8,0.0,98,0.04,CLR,,0.04,WeatherDisplay:10.37,2013-04-10 04:48:00,
2013-04-10 00:51:00,44.6,44.1,29.87,SSE,158,0.0,0.0,98,0.04,CLR,,0.04,WeatherDisplay:10.37,2013-04-10 04:51:00,
2013-04-10 00:52:00,44.6,44.1,29.87,ESE,112,0.0,0.0,98,0.04,CLR,,0.04,WeatherDisplay:10.37,2013-04-10 04:52:00,
2013-04-10 00:53:00,44.6,44.1,29.87,ESE,112,0.0,0.0,98,0.04,CLR,,0.04,WeatherDisplay:10.37,2013-04-10 04:53:00,
2013-04-10 00:57:00,44.6,44.1,29.87,ESE,112,0.0,0.0,98,0.04,CLR,,0.04,WeatherDisplay:10.37,2013-04-10 04:57:00,
2013-04-10 00:59:00,44.6,44.1,29.87,SE,135,0.0,0.0,98,0.04,CLR,,0.04,WeatherDisplay:10.37,2013-04-10 04:59:00,
2013-04-10 01:02:00,44.8,44.3,29.87,SE,135,0.0,0.0,98,0.04,CLR,,0.04,WeatherDisplay:10.37,2013-04-10 05:02:00,
2013-04-10 01:03:00,44.8,44.3,29.87,SSE,158,0.0,0.0,98,0.04,CLR,,0.04,WeatherDisplay:10.37,2013-04-10 05:03:00,
2013-04-10 01:04:00,44.8,44.3,29.87,ESE,112,0.0,0.0,98,0.04,CLR,,0.04,WeatherDisplay:10.37,2013-04-10 05:04:00,
2013-04-10 01:07:00,44.8,44.3,29.87,ESE,112,0.0,0.0,98,0.04,CLR,,0.04,WeatherDisplay:10.37,2013-04-10 05:07:00,
2013-04-10 01:08:00,44.8,44.3,29.87,SE,135,0.0,0.0,98,0.04,CLR,,0.04,WeatherDisplay:10.37,2013-04-10 05:08:00,
2013-04-10 01:09:00,44.8,44.3,29.87,SSE,158,0.0,0.0,98,0.04,CLR,,0.04,WeatherDisplay:10.37,2013-04-10 05:09:00,
2013-04-10 01:12:00,44.8,44.3,29.84,ESE,112,0.0,0.0,98,0.00,CLR,,0.04,WeatherDisplay:10.37,2013-04-10 05:12:00,
2013-04-10 01:13:00,44.8,44.3,29.84,ESE,112,0.0,0.0,98,0.00,CLR,,0.04,WeatherDisplay:10.37,2013-04-10 05:13:00,
2013-04-10 01:14:00,44.8,44.3,29.84,ESE,112,1.1,0.0,98,0.00,CLR,,0.04,WeatherDisplay:10.37,2013-04-10 05:14:00,
2013-04-10 01:18:00,44.8,44.3,29.84,SE,135,2.3,2.3,98,0.00,CLR,,0.04,WeatherDisplay:10.37,2013-04-10 05:18:00,
2013-04-10 01:19:00,44.8,44.3,29.84,ESE,112,0.0,0.0,98,0.00,CLR,,0.04,WeatherDisplay:10.37,2013-04-10 05:19:00,
2013-04-10 01:23:00,44.8,44.3,29.84,ESE,112,1.1,0.0,98,0.00,CLR,,0.04,WeatherDisplay:10.37,2013-04-10 05:23:00,
2013-04-10 01:24:00,44.8,44.3,29.84,ESE,112,1.1,0.0,98,0.00,CLR,,0.04,WeatherDisplay:10.37,2013-04-10 05:24:00,
2013-04-10 01:28:00,45.0,44.4,29.84,ESE,112,0.0,0.0,98,0.00,CLR,,0.04,WeatherDisplay:10.37,2013-04-10 05:28:00,
2013-04-10 01:29:00,45.0,44.4,29.84,ESE,112,0.0,0.0,98,0.00,CLR,,0.04,WeatherDisplay:10.37,2013-04-10 05:29:00,
2013-04-10 01:33:00,44.8,44.3,29.84,East,90,0.0,0.0,98,0.00,CLR,,0.04,WeatherDisplay:10.37,2013-04-10 05:33:00,
2013-04-10 01:35:00,44.8,44.3,29.84,ESE,112,0.0,0.0,98,0.00,CLR,,0.04,WeatherDisplay:10.37,2013-04-10 05:35:00,
2013-04-10 01:39:00,44.8,44.3,29.84,East,90,0.0,0.0,98,0.00,CLR,,0.04,WeatherDisplay:10.37,2013-04-10 05:39:00,
2013-04-10 01:40:00,44.8,44.3,29.84,ESE,112,0.0,0.0,98,0.00,CLR,,0.04,WeatherDisplay:10.37,2013-04-10 05:40:00,
2013-04-10 01:44:00,44.8,44.3,29.87,ESE,112,0.0,0.0,98,0.00,CLR,,0.04,WeatherDisplay:10.37,2013-04-10 05:44:00,
2013-04-10 01:45:00,44.8,44.3,29.87,East,90,0.0,0.0,98,0.00,CLR,,0.04,WeatherDisplay:10.37,2013-04-10 05:45:00,
2013-04-10 01:49:00,44.8,44.3,29.87,ESE,112,0.0,0.0,98,0.00,CLR,,0.04,WeatherDisplay:10.37,2013-04-10 05:49:00,
2013-04-10 01:50:00,44.8,44.3,29.87,ESE,112,0.0,0.0,98,0.00,CLR,,0.04,WeatherDisplay:10.37,2013-04-10 05:50:00,
2013-04-10 01:54:00,44.8,44.3,29.87,ESE,112,0.0,0.0,98,0.00,CLR,,0.04,WeatherDisplay:10.37,2013-04-10 05:54:00,
2013-04-10 01:55:00,44.8,44.3,29.87,ESE,112,0.0,0.0,98,0.00,CLR,,0.04,WeatherDisplay:10.37,2013-04-10 05:55:00,
2013-04-10 01:59:00,44.8,44.3,29.87,ESE,112,0.0,0.0,98,0.00,CLR,,0.04,WeatherDisplay:10.37,2013-04-10 05:59:00,
2013-04-10 02:00:00,44.8,44.3,29.87,SSE,158,0.0,0.0,98,0.00,CLR,,0.04,WeatherDisplay:10.37,2013-04-10 06:00:00,
2013-04-10 02:04:00,44.8,44.3,29.87,SSE,158,0.0,0.0,98,0.00,CLR,,0.04,WeatherDisplay:10.37,2013-04-10 06:04:00,
2013-04-10 02:05:00,44.8,44.3,29.87,SSE,158,0.0,0.0,98,0.00,CLR,,0.04,WeatherDisplay:10.37,2013-04-10 06:05:00,
2013-04-10 02:06:00,44.8,44.3,29.87,East,90,0.0,0.0,98,0.00,CLR,,0.04,WeatherDisplay:10.37,2013-04-10 06:06:00,
2013-04-10 02:09:00,44.8,44.3,29.87,ESE,112,0.0,0.0,98,0.05,RA,,0.09,WeatherDisplay:10.37,2013-04-10 06:09:00,
2013-04-10 02:10:00,44.8,44.3,29.87,SSE,158,0.0,0.0,98,0.05,RA,,0.09,WeatherDisplay:10.37,2013-04-10 06:10:00,
2013-04-10 02:11:00,44.8,44.3,29.87,SSE,158,0.0,0.0,98,0.05,RA,,0.09,WeatherDisplay:10.37,2013-04-10 06:11:00,
2013-04-10 02:14:00,44.6,44.1,29.87,ESE,112,0.0,0.0,98,0.05,RA,,0.09,WeatherDisplay:10.37,2013-04-10 06:14:00,
2013-04-10 02:15:00,44.6,44.1,29.87,ESE,112,0.0,0.0,98,0.05,RA,,0.09,WeatherDisplay:10.37,2013-04-10 06:15:00,
2013-04-10 02:17:00,44.6,44.1,29.87,ESE,112,0.0,0.0,98,0.05,RA,,0.09,WeatherDisplay:10.37,2013-04-10 06:17:00,
2013-04-10 02:19:00,44.6,44.1,29.87,ESE,112,0.0,0.0,98,0.05,CLR,,0.09,WeatherDisplay:10.37,2013-04-10 06:19:00,
2013-04-10 02:20:00,44.6,44.1,29.87,SSE,158,0.0,0.0,98,0.05,CLR,,0.09,WeatherDisplay:10.37,2013-04-10 06:20:00,
2013-04-10 02:22:00,44.4,43.9,29.87,ESE,112,0.0,0.0,98,0.05,CLR,,0.09,WeatherDisplay:10.37,2013-04-10 06:22:00,
2013-04-10 02:24:00,44.4,43.9,29.87,SSE,158,0.0,0.0,98,0.05,CLR,,0.09,WeatherDisplay:10.37,2013-04-10 06:24:00,
2013-04-10 02:25:00,44.4,43.9,29.87,SE,135,0.0,0.0,98,0.05,CLR,,0.09,WeatherDisplay:10.37,2013-04-10 06:25:00,
2013-04-10 02:27:00,44.4,43.9,29.84,ESE,112,0.0,0.0,98,0.05,CLR,,0.09,WeatherDisplay:10.37,2013-04-10 06:27:00,
2013-04-10 02:29:00,44.4,43.9,29.84,ESE,112,0.0,0.0,98,0.05,CLR,,0.09,WeatherDisplay:10.37,2013-04-10 06:29:00,
2013-04-10 02:30:00,44.6,44.1,29.84,ESE,112,0.0,0.0,98,0.05,CLR,,0.09,WeatherDisplay:10.37,2013-04-10 06:30:00,
2013-04-10 02:32:00,44.6,44.1,29.84,SSE,158,0.0,0.0,98,0.05,CLR,,0.09,WeatherDisplay:10.37,2013-04-10 06:32:00,
2013-04-10 02:34:00,44.6,44.1,29.84,ESE,112,0.0,0.0,98,0.05,CLR,,0.09,WeatherDisplay:10.37,2013-04-10 06:34:00,
2013-04-10 02:36:00,44.6,44.1,29.84,ESE,112,0.0,0.0,98,0.05,CLR,,0.09,WeatherDisplay:10.37,2013-04-10 06:36:00,
2013-04-10 02:37:00,44.6,44.1,29.84,ESE,112,0.0,0.0,98,0.05,CLR,,0.09,WeatherDisplay:10.37,2013-04-10 06:37:00,
2013-04-10 02:39:00,44.6,44.1,29.84,ESE,112,0.0,0.0,98,0.05,CLR,,0.09,WeatherDisplay:10.37,2013-04-10 06:39:00,
2013-04-10 02:41:00,44.6,44.1,29.84,ESE,112,0.0,0.0,98,0.05,CLR,,0.09,WeatherDisplay:10.37,2013-04-10 06:41:00,
2013-04-10 02:42:00,44.6,44.1,29.84,SE,135,0.0,0.0,98,0.05,CLR,,0.09,WeatherDisplay:10.37,2013-04-10 06:42:00,
2013-04-10 02:44:00,44.6,44.1,29.84,ESE,112,0.0,0.0,98,0.05,CLR,,0.09,WeatherDisplay:10.37,2013-04-10 06:44:00,
2013-04-10 02:45:00,44.6,44.1,29.84,ESE,112,0.0,0.0,98,0.05,CLR,,0.09,WeatherDisplay:10.37,2013-04-10 06:45:00,
2013-04-10 02:46:00,44.6,44.1,29.84,ESE,112,0.0,0.0,98,0.05,CLR,,0.09,WeatherDisplay:10.37,2013-04-10 06:46:00,
2013-04-10 02:48:00,44.6,44.1,29.84,ESE,112,0.0,0.0,98,0.05,CLR,,0.09,WeatherDisplay:10.37,2013-04-10 06:48:00,
2013-04-10 02:49:00,44.6,44.1,29.84,ESE,112,0.0,0.0,98,0.05,CLR,,0.09,WeatherDisplay:10.37,2013-04-10 06:49:00,
2013-04-10 02:50:00,44.6,44.1,29.84,ESE,112,0.0,0.0,98,0.05,CLR,,0.09,WeatherDisplay:10.37,2013-04-10 06:50:00,
2013-04-10 02:51:00,44.6,44.1,29.84,ESE,112,0.0,0.0,98,0.05,CLR,,0.09,WeatherDisplay:10.37,2013-04-10 06:51:00,
2013-04-10 02:53:00,44.6,44.1,29.84,ESE,112,0.0,0.0,98,0.05,CLR,,0.09,WeatherDisplay:10.37,2013-04-10 06:53:00,
2013-04-10 02:54:00,44.6,44.1,29.84,ESE,112,0.0,0.0,98,0.05,CLR,,0.09,WeatherDisplay:10.37,2013-04-10 06:54:00,
2013-04-10 02:55:00,44.6,44.1,29.84,ESE,112,0.0,0.0,98,0.05,CLR,,0.09,WeatherDisplay:10.37,2013-04-10 06:55:00,
2013-04-10 02:57:00,44.6,44.1,29.87,ESE,112,0.0,0.0,98,0.05,CLR,,0.09,WeatherDisplay:10.37,2013-04-10 06:57:00,
2013-04-10 02:58:00,44.6,44.1,29.87,ESE,112,0.0,0.0,98,0.05,CLR,,0.09,WeatherDisplay:10.37,2013-04-10 06:58:00,
2013-04-10 03:00:00,44.6,44.1,29.87,ESE,112,0.0,0.0,98,0.05,CLR,,0.09,WeatherDisplay:10.37,2013-04-10 07:00:00,
2013-04-10 03:02:00,44.6,44.1,29.87,ESE,112,0.0,0.0,98,0.05,CLR,,0.09,WeatherDisplay:10.37,2013-04-10 07:02:00,
2013-04-10 03:03:00,44.6,44.1,29.87,ESE,112,0.0,0.0,98,0.05,CLR,,0.09,WeatherDisplay:10.37,2013-04-10 07:03:00,
2013-04-10 03:05:00,44.6,44.1,29.87,ESE,112,0.0,0.0,98,0.05,CLR,,0.09,WeatherDisplay:10.37,2013-04-10 07:05:00,
2013-04-10 03:07:00,44.6,44.1,29.87,SSE,158,0.0,0.0,98,0.00,CLR,,0.09,WeatherDisplay:10.37,2013-04-10 07:07:00,
2013-04-10 03:09:00,44.6,44.1,29.87,SSE,158,0.0,0.0,98,0.00,CLR,,0.09,WeatherDisplay:10.37,2013-04-10 07:09:00,
2013-04-10 03:10:00,44.4,43.9,29.87,ESE,112,0.0,0.0,98,0.00,CLR,,0.09,WeatherDisplay:10.37,2013-04-10 07:10:00,
2013-04-10 03:12:00,44.4,43.9,29.87,SE,135,0.0,0.0,98,0.00,CLR,,0.09,WeatherDisplay:10.37,2013-04-10 07:12:00,
2013-04-10 03:14:00,44.4,43.9,29.87,ESE,112,0.0,0.0,98,0.00,CLR,,0.09,WeatherDisplay:10.37,2013-04-10 07:14:00,
2013-04-10 03:15:00,44.4,43.9,29.87,ESE,112,0.0,0.0,98,0.00,CLR,,0.09,WeatherDisplay:10.37,2013-04-10 07:15:00,
2013-04-10 03:17:00,44.2,43.7,29.87,SSE,158,0.0,0.0,98,0.00,CLR,,0.09,WeatherDisplay:10.37,2013-04-10 07:17:00,
2013-04-10 03:19:00,44.2,43.7,29.87,SE,135,0.0,0.0,98,0.00,CLR,,0.09,WeatherDisplay:10.37,2013-04-10 07:19:00,
2013-04-10 03:20:00,44.2,43.7,29.87,ESE,112,0.0,0.0,98,0.00,CLR,,0.09,WeatherDisplay:10.37,2013-04-10 07:20:00,
2013-04-10 03:21:00,44.2,43.7,29.87,ESE,112,0.0,0.0,98,0.00,CLR,,0.09,WeatherDisplay:10.37,2013-04-10 07:21:00,
2013-04-10 03:23:00,44.2,43.7,29.87,ESE,112,0.0,0.0,98,0.00,CLR,,0.09,WeatherDisplay:10.37,2013-04-10 07:23:00,
2013-04-10 03:24:00,44.2,43.7,29.87,ESE,112,0.0,0.0,98,0.00,CLR,,0.09,WeatherDisplay:10.37,2013-04-10 07:24:00,
2013-04-10 03:25:00,44.2,43.7,29.87,ESE,112,0.0,0.0,98,0.00,CLR,,0.09,WeatherDisplay:10.37,2013-04-10 07:25:00,
2013-04-10 03:27:00,44.2,43.7,29.87,ESE,112,0.0,0.0,98,0.00,CLR,,0.09,WeatherDisplay:10.37,2013-04-10 07:27:00,
2013-04-10 03:29:00,44.2,43.7,29.87,ESE,112,0.0,0.0,98,0.00,CLR,,0.09,WeatherDisplay:10.37,2013-04-10 07:29:00,
2013-04-10 03:30:00,44.2,43.7,29.87,ESE,112,0.0,0.0,98,0.00,CLR,,0.09,WeatherDisplay:10.37,2013-04-10 07:30:00,
2013-04-10 03:33:00,44.2,43.7,29.87,ESE,112,0.0,0.0,98,0.00,CLR,,0.09,WeatherDisplay:10.37,2013-04-10 07:33:00,
2013-04-10 03:34:00,44.2,43.7,29.87,ESE,112,0.0,0.0,98,0.00,CLR,,0.09,WeatherDisplay:10.37,2013-04-10 07:34:00,
2013-04-10 03:35:00,44.2,43.7,29.87,ESE,112,0.0,0.0,98,0.00,CLR,,0.09,WeatherDisplay:10.37,2013-04-10 07:35:00,
2013-04-10 03:38:00,44.2,43.7,29.87,ESE,112,0.0,0.0,98,0.00,CLR,,0.09,WeatherDisplay:10.37,2013-04-10 07:38:00,
2013-04-10 03:39:00,44.2,43.7,29.87,ESE,112,0.0,0.0,98,0.00,CLR,,0.09,WeatherDisplay:10.37,2013-04-10 07:39:00,
2013-04-10 03:40:00,44.1,43.5,29.87,East,90,0.0,0.0,98,0.00,CLR,,0.09,WeatherDisplay:10.37,2013-04-10 07:40:00,
2013-04-10 03:43:00,44.1,43.5,29.87,ESE,112,0.0,0.0,98,0.00,CLR,,0.09,WeatherDisplay:10.37,2013-04-10 07:43:00,
2013-04-10 03:44:00,44.2,43.7,29.87,SE,135,0.0,0.0,98,0.00,CLR,,0.09,WeatherDisplay:10.37,2013-04-10 07:44:00,
2013-04-10 03:45:00,44.1,43.5,29.87,SE,135,0.0,0.0,98,0.00,CLR,,0.09,WeatherDisplay:10.37,2013-04-10 07:45:00,
2013-04-10 03:48:00,44.1,43.5,29.87,SE,135,0.0,0.0,98,0.00,CLR,,0.09,WeatherDisplay:10.37,2013-04-10 07:48:00,
2013-04-10 03:49:00,44.1,43.5,29.87,ESE,112,0.0,0.0,98,0.00,CLR,,0.09,WeatherDisplay:10.37,2013-04-10 07:49:00,
2013-04-10 03:50:00,44.1,43.5,29.87,ESE,112,0.0,0.0,98,0.00,CLR,,0.09,WeatherDisplay:10.37,2013-04-10 07:50:00,
2013-04-10 03:54:00,44.1,43.5,29.87,ESE,112,0.0,0.0,98,0.00,CLR,,0.09,WeatherDisplay:10.37,2013-04-10 07:54:00,
2013-04-10 03:55:00,44.1,43.5,29.87,ESE,112,0.0,0.0,98,0.00,CLR,,0.09,WeatherDisplay:10.37,2013-04-10 07:55:00,
2013-04-10 03:59:00,44.1,43.5,29.87,ESE,112,0.0,0.0,98,0.00,CLR,,0.09,WeatherDisplay:10.37,2013-04-10 07:59:00,
2013-04-10 04:00:00,44.1,43.5,29.87,ESE,112,0.0,0.0,98,0.00,CLR,,0.09,WeatherDisplay:10.37,2013-04-10 08:00:00,
2013-04-10 04:04:00,44.1,43.5,29.87,ESE,112,0.0,0.0,98,0.00,CLR,,0.09,WeatherDisplay:10.37,2013-04-10 08:04:00,
2013-04-10 04:05:00,44.1,43.5,29.87,ESE,112,0.0,0.0,98,0.00,CLR,,0.09,WeatherDisplay:10.37,2013-04-10 08:05:00,
2013-04-10 04:09:00,44.1,43.5,29.87,ESE,112,0.0,0.0,98,0.00,CLR,,0.09,WeatherDisplay:10.37,2013-04-10 08:09:00,
2013-04-10 04:10:00,43.9,43.4,29.87,ESE,112,0.0,0.0,98,0.00,CLR,,0.09,WeatherDisplay:10.37,2013-04-10 08:10:00,
2013-04-10 04:11:00,43.9,43.4,29.87,ESE,112,0.0,0.0,98,0.00,CLR,,0.09,WeatherDisplay:10.37,2013-04-10 08:11:00,
2013-04-10 04:14:00,43.9,43.4,29.87,ESE,112,0.0,0.0,98,0.00,CLR,,0.09,WeatherDisplay:10.37,2013-04-10 08:14:00,
2013-04-10 04:15:00,43.9,43.4,29.87,ESE,112,0.0,0.0,98,0.00,CLR,,0.09,WeatherDisplay:10.37,2013-04-10 08:15:00,
2013-04-10 04:17:00,43.9,43.4,29.87,ESE,112,0.0,0.0,98,0.00,CLR,,0.09,WeatherDisplay:10.37,2013-04-10 08:17:00,
2013-04-10 04:19:00,43.7,43.2,29.87,ESE,112,0.0,0.0,98,0.00,CLR,,0.09,WeatherDisplay:10.37,2013-04-10 08:19:00,
2013-04-10 04:20:00,43.9,43.4,29.87,ESE,112,0.0,0.0,98,0.00,CLR,,0.09,WeatherDisplay:10.37,2013-04-10 08:20:00,
2013-04-10 04:22:00,43.9,43.4,29.87,ESE,112,0.0,0.0,98,0.00,CLR,,0.09,WeatherDisplay:10.37,2013-04-10 08:22:00,
2013-04-10 04:24:00,43.9,43.4,29.87,ESE,112,0.0,0.0,98,0.00,CLR,,0.09,WeatherDisplay:10.37,2013-04-10 08:24:00,
2013-04-10 04:25:00,43.9,43.4,29.87,ESE,112,0.0,0.0,98,0.00,CLR,,0.09,WeatherDisplay:10.37,2013-04-10 08:25:00,
2013-04-10 04:26:00,43.9,43.4,29.87,ESE,112,0.0,0.0,98,0.00,CLR,,0.09,WeatherDisplay:10.37,2013-04-10 08:26:00,
2013-04-10 04:27:00,43.9,43.4,29.87,ESE,112,0.0,0.0,98,0.00,CLR,,0.09,WeatherDisplay:10.37,2013-04-10 08:27:00,
2013-04-10 04:29:00,43.9,43.4,29.87,ESE,112,0.0,0.0,98,0.00,CLR,,0.09,WeatherDisplay:10.37,2013-04-10 08:29:00,
2013-04-10 04:30:00,43.9,43.4,29.87,ESE,112,0.0,0.0,98,0.00,CLR,,0.09,WeatherDisplay:10.37,2013-04-10 08:30:00,
2013-04-10 04:32:00,43.9,43.4,29.87,ESE,112,0.0,0.0,98,0.00,CLR,,0.09,WeatherDisplay:10.37,2013-04-10 08:32:00,
2013-04-10 04:34:00,44.1,43.5,29.87,ESE,112,0.0,0.0,98,0.00,CLR,,0.09,WeatherDisplay:10.37,2013-04-10 08:34:00,
2013-04-10 04:35:00,44.1,43.5,29.87,ESE,112,0.0,0.0,98,0.00,CLR,,0.09,WeatherDisplay:10.37,2013-04-10 08:35:00,
2013-04-10 04:37:00,44.1,43.5,29.87,ESE,112,0.0,0.0,98,0.00,CLR,,0.09,WeatherDisplay:10.37,2013-04-10 08:37:00,
2013-04-10 04:46:00,44.1,43.5,29.87,ESE,112,0.0,0.0,98,0.00,CLR,,0.09,WeatherDisplay:10.37,2013-04-10 08:46:00,
2013-04-10 04:47:00,44.1,43.5,29.87,ESE,112,0.0,0.0,98,0.00,CLR,,0.09,WeatherDisplay:10.37,2013-04-10 08:47:00,
2013-04-10 04:51:00,44.1,43.5,29.87,ESE,112,0.0,0.0,98,0.00,CLR,,0.09,WeatherDisplay:10.37,2013-04-10 08:51:00,
2013-04-10 04:52:00,44.1,43.5,29.87,ESE,112,0.0,0.0,98,0.00,CLR,,0.09,WeatherDisplay:10.37,2013-04-10 08:52:00,
2013-04-10 04:56:00,44.1,43.5,29.87,ESE,112,0.0,0.0,98,0.00,CLR,,0.09,WeatherDisplay:10.37,2013-04-10 08:56:00,
2013-04-10 04:57:00,44.1,43.5,29.87,ESE,112,0.0,0.0,98,0.00,CLR,,0.09,WeatherDisplay:10.37,2013-04-10 08:57:00,
2013-04-10 05:02:00,44.1,43.5,29.87,ESE,112,0.0,0.0,98,0.00,CLR,,0.09,WeatherDisplay:10.37,2013-04-10 09:02:00,
2013-04-10 05:07:00,44.1,43.5,29.87,ESE,112,0.0,0.0,98,0.00,CLR,,0.09,WeatherDisplay:10.37,2013-04-10 09:07:00,
2013-04-10 05:12:00,44.1,43.5,29.87,ESE,112,0.0,0.0,98,0.00,CLR,,0.09,WeatherDisplay:10.37,2013-04-10 09:12:00,
2013-04-10 05:13:00,44.1,43.5,29.87,East,90,0.0,0.0,98,0.00,CLR,,0.09,WeatherDisplay:10.37,2013-04-10 09:13:00,
2013-04-10 05:17:00,44.1,43.5,29.87,ESE,112,0.0,0.0,98,0.00,CLR,,0.09,WeatherDisplay:10.37,2013-04-10 09:17:00,
2013-04-10 05:18:00,44.1,43.5,29.87,ESE,112,0.0,0.0,98,0.00,CLR,,0.09,WeatherDisplay:10.37,2013-04-10 09:18:00,
2013-04-10 05:22:00,44.1,43.5,29.87,ESE,112,0.0,0.0,98,0.00,CLR,,0.09,WeatherDisplay:10.37,2013-04-10 09:22:00,
2013-04-10 05:23:00,44.1,43.5,29.87,ESE,112,0.0,0.0,98,0.00,CLR,,0.09,WeatherDisplay:10.37,2013-04-10 09:23:00,
2013-04-10 05:27:00,43.7,43.2,29.84,ESE,112,0.0,0.0,98,0.00,CLR,,0.09,WeatherDisplay:10.37,2013-04-10 09:27:00,
2013-04-10 05:28:00,43.7,43.2,29.84,SE,135,0.0,0.0,98,0.00,CLR,,0.09,WeatherDisplay:10.37,2013-04-10 09:28:00,
2013-04-10 05:32:00,43.5,43.0,29.84,ESE,112,0.0,0.0,98,0.00,CLR,,0.09,WeatherDisplay:10.37,2013-04-10 09:32:00,
2013-04-10 05:33:00,43.5,43.0,29.84,ESE,112,0.0,0.0,98,0.00,CLR,,0.09,WeatherDisplay:10.37,2013-04-10 09:33:00,
2013-04-10 05:34:00,43.3,42.8,29.84,ESE,112,0.0,0.0,98,0.00,CLR,,0.09,WeatherDisplay:10.37,2013-04-10 09:34:00,
2013-04-10 05:37:00,43.3,42.8,29.84,ESE,112,0.0,0.0,98,0.00,CLR,,0.09,WeatherDisplay:10.37,2013-04-10 09:37:00,
2013-04-10 05:38:00,43.3,42.8,29.84,ESE,112,0.0,0.0,98,0.00,CLR,,0.09,WeatherDisplay:10.37,2013-04-10 09:38:00,
2013-04-10 05:39:00,43.3,42.8,29.84,ESE,112,0.0,0.0,98,0.00,CLR,,0.09,WeatherDisplay:10.37,2013-04-10 09:39:00,
2013-04-10 05:43:00,43.3,42.8,29.87,East,90,0.0,0.0,98,0.00,CLR,,0.09,WeatherDisplay:10.37,2013-04-10 09:43:00,
2013-04-10 05:44:00,43.2,42.6,29.87,ESE,112,0.0,0.0,98,0.00,CLR,,0.09,WeatherDisplay:10.37,2013-04-10 09:44:00,
2013-04-10 05:48:00,43.0,42.5,29.87,East,90,0.0,0.0,98,0.00,CLR,,0.09,WeatherDisplay:10.37,2013-04-10 09:48:00,
2013-04-10 05:49:00,43.0,42.5,29.87,ESE,112,0.0,0.0,98,0.00,CLR,,0.09,WeatherDisplay:10.37,2013-04-10 09:49:00,
2013-04-10 05:53:00,42.8,42.3,29.87,ESE,112,0.0,0.0,98,0.00,CLR,,0.09,WeatherDisplay:10.37,2013-04-10 09:53:00,
2013-04-10 05:54:00,42.8,42.3,29.87,ESE,112,0.0,0.0,98,0.00,CLR,,0.09,WeatherDisplay:10.37,2013-04-10 09:54:00,
2013-04-10 05:58:00,42.6,42.1,29.87,ESE,112,0.0,0.0,98,0.00,CLR,,0.09,WeatherDisplay:10.37,2013-04-10 09:58:00,
2013-04-10 05:59:00,42.6,42.1,29.87,ESE,112,0.0,0.0,98,0.00,CLR,,0.09,WeatherDisplay:10.37,2013-04-10 09:59:00,
2013-04-10 06:03:00,42.6,42.1,29.87,ESE,112,0.0,0.0,98,0.00,CLR,,0.09,WeatherDisplay:10.37,2013-04-10 10:03:00,
2013-04-10 06:04:00,42.6,42.1,29.87,ESE,112,0.0,0.0,98,0.00,CLR,,0.09,WeatherDisplay:10.37,2013-04-10 10:04:00,
2013-04-10 06:08:00,42.4,41.9,29.87,ESE,112,0.0,0.0,98,0.00,CLR,,0.09,WeatherDisplay:10.37,2013-04-10 10:08:00,
2013-04-10 06:09:00,42.4,41.9,29.87,ESE,112,0.0,0.0,98,0.00,CLR,,0.09,WeatherDisplay:10.37,2013-04-10 10:09:00,
2013-04-10 06:13:00,42.4,41.9,29.87,ESE,112,0.0,0.0,98,0.00,CLR,,0.09,WeatherDisplay:10.37,2013-04-10 10:13:00,
2013-04-10 06:14:00,42.4,41.9,29.87,ESE,112,0.0,0.0,98,0.00,CLR,,0.09,WeatherDisplay:10.37,2013-04-10 10:14:00,
2013-04-10 06:15:00,42.6,42.1,29.87,ESE,112,0.0,0.0,98,0.00,CLR,,0.09,WeatherDisplay:10.37,2013-04-10 10:15:00,
2013-04-10 06:19:00,42.4,41.9,29.87,ESE,112,0.0,0.0,98,0.00,CLR,,0.09,WeatherDisplay:10.37,2013-04-10 10:19:00,
2013-04-10 06:20:00,42.4,41.9,29.87,SE,135,0.0,0.0,98,0.00,CLR,,0.09,WeatherDisplay:10.37,2013-04-10 10:20:00,
2013-04-10 06:24:00,42.4,41.9,29.87,ESE,112,0.0,0.0,98,0.00,CLR,,0.09,WeatherDisplay:10.37,2013-04-10 10:24:00,
2013-04-10 06:25:00,42.4,41.9,29.87,SE,135,0.0,0.0,98,0.00,CLR,,0.09,WeatherDisplay:10.37,2013-04-10 10:25:00,
2013-04-10 06:29:00,42.4,41.9,29.87,ESE,112,0.0,0.0,98,0.00,CLR,,0.09,WeatherDisplay:10.37,2013-04-10 10:29:00,
2013-04-10 06:30:00,42.4,41.9,29.87,ESE,112,0.0,0.0,98,0.00,CLR,,0.09,WeatherDisplay:10.37,2013-04-10 10:30:00,
2013-04-10 06:34:00,42.4,41.9,29.87,ESE,112,0.0,0.0,98,0.00,CLR,,0.09,WeatherDisplay:10.37,2013-04-10 10:34:00,
2013-04-10 06:35:00,42.4,41.9,29.87,ESE,112,0.0,0.0,98,0.00,CLR,,0.09,WeatherDisplay:10.37,2013-04-10 10:35:00,
2013-04-10 06:39:00,42.4,41.9,29.87,ESE,112,0.0,0.0,98,0.00,CLR,,0.09,WeatherDisplay:10.37,2013-04-10 10:39:00,
2013-04-10 06:40:00,42.4,41.9,29.87,ESE,112,0.0,0.0,98,0.00,CLR,,0.09,WeatherDisplay:10.37,2013-04-10 10:40:00,
2013-04-10 06:44:00,42.4,41.9,29.90,SSE,158,0.0,0.0,98,0.00,CLR,,0.09,WeatherDisplay:10.37,2013-04-10 10:44:00,
2013-04-10 06:45:00,42.4,41.9,29.90,SE,135,0.0,0.0,98,0.00,CLR,,0.09,WeatherDisplay:10.37,2013-04-10 10:45:00,
2013-04-10 06:49:00,42.4,41.9,29.90,ESE,112,0.0,0.0,98,0.00,CLR,,0.09,WeatherDisplay:10.37,2013-04-10 10:49:00,
2013-04-10 06:50:00,42.4,41.9,29.90,ESE,112,0.0,0.0,98,0.00,CLR,,0.09,WeatherDisplay:10.37,2013-04-10 10:50:00,
2013-04-10 06:54:00,42.4,41.9,29.90,ESE,112,0.0,0.0,98,0.00,CLR,,0.09,WeatherDisplay:10.37,2013-04-10 10:54:00,
2013-04-10 06:55:00,42.6,42.1,29.90,ESE,112,0.0,0.0,98,0.00,CLR,,0.09,WeatherDisplay:10.37,2013-04-10 10:55:00,
2013-04-10 07:00:00,42.6,42.1,29.87,ESE,112,0.0,0.0,98,0.00,CLR,,0.09,WeatherDisplay:10.37,2013-04-10 11:00:00,
2013-04-10 07:05:00,42.8,42.3,29.87,SE,135,0.0,0.0,98,0.00,CLR,,0.09,WeatherDisplay:10.37,2013-04-10 11:05:00,
2013-04-10 07:10:00,42.8,42.3,29.87,ESE,112,0.0,0.0,98,0.00,CLR,,0.09,WeatherDisplay:10.37,2013-04-10 11:10:00,
2013-04-10 07:11:00,43.0,42.5,29.87,ESE,112,0.0,0.0,98,0.00,CLR,,0.09,WeatherDisplay:10.37,2013-04-10 11:11:00,
2013-04-10 07:15:00,43.0,42.5,29.87,ESE,112,0.0,0.0,98,0.00,CLR,,0.09,WeatherDisplay:10.37,2013-04-10 11:15:00,
2013-04-10 07:16:00,43.0,42.5,29.87,ESE,112,0.0,0.0,98,0.00,CLR,,0.09,WeatherDisplay:10.37,2013-04-10 11:16:00,
2013-04-10 07:17:00,43.0,42.5,29.87,SE,135,0.0,0.0,98,0.00,CLR,,0.09,WeatherDisplay:10.37,2013-04-10 11:17:00,
2013-04-10 07:20:00,43.0,42.5,29.87,ESE,112,0.0,0.0,98,0.00,CLR,,0.09,WeatherDisplay:10.37,2013-04-10 11:20:00,
2013-04-10 07:21:00,43.0,42.5,29.87,ESE,112,0.0,0.0,98,0.00,CLR,,0.09,WeatherDisplay:10.37,2013-04-10 11:21:00,
2013-04-10 07:22:00,43.2,42.6,29.87,ESE,112,0.0,0.0,98,0.00,CLR,,0.09,WeatherDisplay:10.37,2013-04-10 11:22:00,
2013-04-10 07:26:00,43.2,42.6,29.87,SE,135,0.0,0.0,98,0.00,CLR,,0.09,WeatherDisplay:10.37,2013-04-10 11:26:00,
2013-04-10 07:27:00,43.2,42.6,29.90,South,180,0.0,0.0,98,0.00,CLR,,0.09,WeatherDisplay:10.37,2013-04-10 11:27:00,
2013-04-10 07:31:00,43.2,42.6,29.90,SSE,158,0.0,0.0,98,0.00,CLR,,0.09,WeatherDisplay:10.37,2013-04-10 11:31:00,
2013-04-10 07:32:00,43.2,42.6,29.90,SSE,158,0.0,0.0,98,0.00,CLR,,0.09,WeatherDisplay:10.37,2013-04-10 11:32:00,
2013-04-10 07:36:00,43.2,42.6,29.90,SE,135,0.0,0.0,98,0.00,CLR,,0.09,WeatherDisplay:10.37,2013-04-10 11:36:00,
2013-04-10 07:37:00,43.3,42.8,29.90,SE,135,0.0,0.0,98,0.00,CLR,,0.09,WeatherDisplay:10.37,2013-04-10 11:37:00,
2013-04-10 07:41:00,43.3,42.8,29.90,ESE,112,0.0,0.0,98,0.00,CLR,,0.09,WeatherDisplay:10.37,2013-04-10 11:41:00,
2013-04-10 07:42:00,43.3,42.8,29.90,ESE,112,0.0,0.0,98,0.00,CLR,,0.09,WeatherDisplay:10.37,2013-04-10 11:42:00,
2013-04-10 07:47:00,43.5,43.0,29.90,ESE,112,0.0,0.0,98,0.00,CLR,,0.09,WeatherDisplay:10.37,2013-04-10 11:47:00,
2013-04-10 07:48:00,43.5,43.0,29.90,ESE,112,0.0,0.0,98,0.00,CLR,,0.09,WeatherDisplay:10.37,2013-04-10 11:48:00,
2013-04-10 07:52:00,43.5,43.0,29.90,ESE,112,0.0,0.0,98,0.00,CLR,,0.09,WeatherDisplay:10.37,2013-04-10 11:52:00,
2013-04-10 07:53:00,43.5,43.0,29.90,ESE,112,0.0,0.0,98,0.00,CLR,,0.09,WeatherDisplay:10.37,2013-04-10 11:53:00,
2013-04-10 07:57:00,43.5,43.0,29.90,SE,135,0.0,0.0,98,0.00,CLR,,0.09,WeatherDisplay:10.37,2013-04-10 11:57:00,
2013-04-10 07:58:00,43.5,43.0,29.90,ESE,112,0.0,0.0,98,0.00,CLR,,0.09,WeatherDisplay:10.37,2013-04-10 11:58:00,
2013-04-10 08:02:00,43.5,43.0,29.90,ESE,112,0.0,0.0,98,0.00,CLR,,0.09,WeatherDisplay:10.37,2013-04-10 12:02:00,
2013-04-10 08:03:00,43.5,43.0,29.90,ESE,112,0.0,0.0,98,0.00,CLR,,0.09,WeatherDisplay:10.37,2013-04-10 12:03:00,
2013-04-10 08:07:00,43.5,43.0,29.90,ESE,112,0.0,0.0,98,0.00,CLR,,0.09,WeatherDisplay:10.37,2013-04-10 12:07:00,
2013-04-10 08:08:00,43.7,43.2,29.90,ESE,112,0.0,0.0,98,0.00,CLR,,0.09,WeatherDisplay:10.37,2013-04-10 12:08:00,
2013-04-10 08:09:00,43.7,43.2,29.90,ESE,112,0.0,0.0,98,0.00,CLR,,0.09,WeatherDisplay:10.37,2013-04-10 12:09:00,
2013-04-10 08:12:00,43.7,43.2,29.90,ESE,112,0.0,0.0,98,0.00,CLR,,0.09,WeatherDisplay:10.37,2013-04-10 12:12:00,
2013-04-10 08:13:00,43.7,43.2,29.90,ESE,112,0.0,0.0,98,0.00,CLR,,0.09,WeatherDisplay:10.37,2013-04-10 12:13:00,
2013-04-10 08:14:00,43.7,43.2,29.90,SE,135,0.0,0.0,98,0.00,CLR,,0.09,WeatherDisplay:10.37,2013-04-10 12:14:00,
2013-04-10 08:18:00,43.7,43.2,29.90,ESE,112,0.0,0.0,98,0.00,CLR,,0.09,WeatherDisplay:10.37,2013-04-10 12:18:00,
2013-04-10 08:19:00,43.7,43.2,29.90,ESE,112,0.0,0.0,98,0.00,CLR,,0.09,WeatherDisplay:10.37,2013-04-10 12:19:00,
2013-04-10 08:23:00,43.9,43.4,29.90,SE,135,0.0,0.0,98,0.00,CLR,,0.09,WeatherDisplay:10.37,2013-04-10 12:23:00,
2013-04-10 08:24:00,43.9,43.4,29.90,SE,135,0.0,0.0,98,0.00,CLR,,0.09,WeatherDisplay:10.37,2013-04-10 12:24:00,
2013-04-10 08:28:00,44.1,43.5,29.90,ESE,112,0.0,0.0,98,0.00,CLR,,0.09,WeatherDisplay:10.37,2013-04-10 12:28:00,
2013-04-10 08:29:00,44.1,43.5,29.90,SE,135,0.0,0.0,98,0.00,CLR,,0.09,WeatherDisplay:10.37,2013-04-10 12:29:00,
2013-04-10 08:33:00,44.1,43.5,29.90,ESE,112,0.0,0.0,98,0.00,CLR,,0.09,WeatherDisplay:10.37,2013-04-10 12:33:00,
2013-04-10 08:34:00,44.1,43.5,29.90,ESE,112,0.0,0.0,98,0.00,CLR,,0.09,WeatherDisplay:10.37,2013-04-10 12:34:00,
2013-04-10 08:35:00,44.1,43.5,29.90,SE,135,0.0,0.0,98,0.00,CLR,,0.09,WeatherDisplay:10.37,2013-04-10 12:35:00,
2013-04-10 08:38:00,44.2,43.7,29.90,SE,135,0.0,0.0,98,0.00,CLR,,0.09,WeatherDisplay:10.37,2013-04-10 12:38:00,
2013-04-10 08:39:00,44.2,43.7,29.90,ESE,112,0.0,0.0,98,0.00,CLR,,0.09,WeatherDisplay:10.37,2013-04-10 12:39:00,
2013-04-10 08:40:00,44.2,43.7,29.90,ESE,112,0.0,0.0,98,0.00,CLR,,0.09,WeatherDisplay:10.37,2013-04-10 12:40:00,
2013-04-10 08:43:00,44.2,43.7,29.90,ESE,112,0.0,0.0,98,0.00,CLR,,0.09,WeatherDisplay:10.37,2013-04-10 12:43:00,
2013-04-10 08:44:00,44.2,43.7,29.90,ESE,112,0.0,0.0,98,0.00,CLR,,0.09,WeatherDisplay:10.37,2013-04-10 12:44:00,
2013-04-10 08:45:00,44.2,43.7,29.90,ESE,112,0.0,0.0,98,0.00,CLR,,0.09,WeatherDisplay:10.37,2013-04-10 12:45:00,
2013-04-10 08:48:00,44.2,43.7,29.90,ESE,112,0.0,0.0,98,0.00,CLR,,0.09,WeatherDisplay:10.37,2013-04-10 12:48:00,
2013-04-10 08:50:00,44.2,43.7,29.90,ESE,112,0.0,0.0,98,0.00,CLR,,0.09,WeatherDisplay:10.37,2013-04-10 12:50:00,
2013-04-10 08:53:00,44.2,43.7,29.90,ESE,112,0.0,0.0,98,0.00,CLR,,0.09,WeatherDisplay:10.37,2013-04-10 12:53:00,
2013-04-10 08:55:00,44.2,43.7,29.90,SE,135,0.0,0.0,98,0.00,CLR,,0.09,WeatherDisplay:10.37,2013-04-10 12:55:00,
2013-04-10 08:58:00,44.4,43.9,29.90,ESE,112,0.0,0.0,98,0.00,CLR,,0.09,WeatherDisplay:10.37,2013-04-10 12:58:00,
2013-04-10 08:59:00,44.4,43.9,29.90,SSE,158,0.0,0.0,98,0.00,CLR,,0.09,WeatherDisplay:10.37,2013-04-10 12:59:00,
2013-04-10 09:00:00,44.4,43.9,29.90,SSE,158,0.0,0.0,98,0.00,CLR,,0.09,WeatherDisplay:10.37,2013-04-10 13:00:00,
2013-04-10 09:04:00,44.6,44.1,29.90,ESE,112,0.0,0.0,98,0.00,CLR,,0.09,WeatherDisplay:10.37,2013-04-10 13:04:00,
2013-04-10 09:05:00,44.6,44.1,29.90,ESE,112,0.0,0.0,98,0.00,CLR,,0.09,WeatherDisplay:10.37,2013-04-10 13:05:00,
2013-04-10 09:09:00,44.4,43.9,29.90,SSE,158,0.0,0.0,98,0.00,CLR,,0.09,WeatherDisplay:10.37,2013-04-10 13:09:00,
2013-04-10 09:10:00,44.6,44.1,29.90,SE,135,0.0,0.0,98,0.00,CLR,,0.09,WeatherDisplay:10.37,2013-04-10 13:10:00,
2013-04-10 09:14:00,44.6,44.1,29.90,ESE,112,0.0,0.0,98,0.00,CLR,,0.09,WeatherDisplay:10.37,2013-04-10 13:14:00,
2013-04-10 09:15:00,44.8,44.3,29.90,SSE,158,0.0,0.0,98,0.00,CLR,,0.09,WeatherDisplay:10.37,2013-04-10 13:15:00,
2013-04-10 09:19:00,44.6,44.1,29.90,ESE,112,0.0,0.0,98,0.00,CLR,,0.09,WeatherDisplay:10.37,2013-04-10 13:19:00,
2013-04-10 09:20:00,44.6,44.1,29.90,East,90,0.0,0.0,98,0.00,CLR,,0.09,WeatherDisplay:10.37,2013-04-10 13:20:00,
2013-04-10 09:24:00,44.6,44.1,29.90,ESE,112,0.0,0.0,98,0.00,CLR,,0.09,WeatherDisplay:10.37,2013-04-10 13:24:00,
2013-04-10 09:25:00,44.4,43.9,29.90,ESE,112,0.0,0.0,98,0.00,CLR,,0.09,WeatherDisplay:10.37,2013-04-10 13:25:00,
2013-04-10 09:29:00,44.2,43.7,29.90,ENE,68,0.0,0.0,98,0.00,CLR,,0.09,WeatherDisplay:10.37,2013-04-10 13:29:00,
2013-04-10 09:30:00,44.2,43.7,29.90,ESE,112,0.0,0.0,98,0.00,CLR,,0.09,WeatherDisplay:10.37,2013-04-10 13:30:00,
2013-04-10 09:34:00,44.1,43.5,29.90,SSE,158,0.0,1.4,98,0.00,CLR,,0.09,WeatherDisplay:10.37,2013-04-10 13:34:00,
2013-04-10 09:35:00,44.1,43.5,29.90,SE,135,0.0,0.0,98,0.00,CLR,,0.09,WeatherDisplay:10.37,2013-04-10 13:35:00,
2013-04-10 09:39:00,44.2,43.7,29.90,SE,135,0.0,0.0,98,0.00,CLR,,0.09,WeatherDisplay:10.37,2013-04-10 13:39:00,
2013-04-10 09:40:00,44.1,43.5,29.90,ESE,112,0.0,0.0,98,0.00,CLR,,0.09,WeatherDisplay:10.37,2013-04-10 13:40:00,
2013-04-10 09:44:00,44.2,43.7,29.90,SSE,158,0.0,0.0,98,0.00,CLR,,0.09,WeatherDisplay:10.37,2013-04-10 13:44:00,
2013-04-10 09:45:00,44.2,43.7,29.90,SSE,158,0.0,0.0,98,0.00,CLR,,0.09,WeatherDisplay:10.37,2013-04-10 13:45:00,
2013-04-10 09:49:00,44.1,43.5,29.90,ESE,112,0.0,0.0,98,0.00,CLR,,0.09,WeatherDisplay:10.37,2013-04-10 13:49:00,
2013-04-10 09:50:00,44.2,43.7,29.90,ESE,112,0.0,0.0,98,0.00,CLR,,0.09,WeatherDisplay:10.37,2013-04-10 13:50:00,
2013-04-10 09:51:00,44.2,43.7,29.90,ESE,112,0.0,0.0,98,0.00,CLR,,0.09,WeatherDisplay:10.37,2013-04-10 13:51:00,
2013-04-10 09:54:00,43.9,43.4,29.90,SSE,158,0.0,0.0,98,0.00,CLR,,0.09,WeatherDisplay:10.37,2013-04-10 13:54:00,
2013-04-10 09:55:00,44.1,43.5,29.90,SSE,158,0.0,0.0,98,0.00,CLR,,0.09,WeatherDisplay:10.37,2013-04-10 13:55:00,
2013-04-10 09:56:00,43.9,43.4,29.90,SE,135,0.0,0.0,98,0.00,CLR,,0.09,WeatherDisplay:10.37,2013-04-10 13:56:00,
2013-04-10 09:57:00,43.9,43.4,29.90,ESE,112,0.0,0.0,98,0.00,CLR,,0.09,WeatherDisplay:10.37,2013-04-10 13:57:00,
2013-04-10 09:59:00,43.9,43.4,29.90,SE,135,0.0,0.0,98,0.00,CLR,,0.09,WeatherDisplay:10.37,2013-04-10 13:59:00,
2013-04-10 10:01:00,44.1,43.5,29.90,ESE,112,0.0,0.0,98,0.00,CLR,,0.09,WeatherDisplay:10.37,2013-04-10 14:01:00,
2013-04-10 10:02:00,44.1,43.5,29.90,ESE,112,0.0,0.0,98,0.00,CLR,,0.09,WeatherDisplay:10.37,2013-04-10 14:02:00,
2013-04-10 10:05:00,43.9,43.4,29.90,SSE,158,1.1,0.0,98,0.00,CLR,,0.09,WeatherDisplay:10.37,2013-04-10 14:05:00,
2013-04-10 10:07:00,44.1,43.5,29.90,East,90,0.0,0.0,98,0.00,CLR,,0.09,WeatherDisplay:10.37,2013-04-10 14:07:00,
2013-04-10 10:08:00,44.1,43.5,29.90,SSE,158,0.0,0.0,98,0.00,CLR,,0.09,WeatherDisplay:10.37,2013-04-10 14:08:00,
2013-04-10 10:10:00,43.9,43.4,29.90,SSE,158,1.1,0.0,98,0.00,CLR,,0.09,WeatherDisplay:10.37,2013-04-10 14:10:00,
2013-04-10 10:12:00,43.9,43.4,29.90,SE,135,0.0,0.0,98,0.00,CLR,,0.09,WeatherDisplay:10.37,2013-04-10 14:12:00,
2013-04-10 10:13:00,43.9,43.4,29.90,SE,135,0.0,0.0,98,0.00,CLR,,0.09,WeatherDisplay:10.37,2013-04-10 14:13:00,
2013-04-10 10:15:00,44.1,43.5,29.90,SE,135,0.0,0.0,98,0.00,CLR,,0.09,WeatherDisplay:10.37,2013-04-10 14:15:00,
2013-04-10 10:17:00,43.9,43.4,29.90,SSE,158,0.0,0.0,98,0.00,CLR,,0.09,WeatherDisplay:10.37,2013-04-10 14:17:00,
2013-04-10 10:18:00,43.7,43.2,29.90,ESE,112,0.0,0.0,98,0.00,CLR,,0.09,WeatherDisplay:10.37,2013-04-10 14:18:00,
2013-04-10 10:20:00,43.7,43.2,29.90,SE,135,0.0,0.0,98,0.00,CLR,,0.09,WeatherDisplay:10.37,2013-04-10 14:20:00,
2013-04-10 10:22:00,43.7,43.2,29.90,ESE,112,0.0,0.0,98,0.00,CLR,,0.09,WeatherDisplay:10.37,2013-04-10 14:22:00,
2013-04-10 10:23:00,43.7,43.2,29.90,ESE,112,0.0,0.0,98,0.00,CLR,,0.09,WeatherDisplay:10.37,2013-04-10 14:23:00,
2013-04-10 10:25:00,43.7,43.2,29.90,SE,135,0.0,0.0,98,0.00,CLR,,0.09,WeatherDisplay:10.37,2013-04-10 14:25:00,
2013-04-10 10:27:00,43.7,43.2,29.90,ESE,112,0.0,0.0,98,0.00,CLR,,0.09,WeatherDisplay:10.37,2013-04-10 14:27:00,
2013-04-10 10:29:00,43.5,43.0,29.90,SSE,158,0.0,0.0,98,0.00,CLR,,0.09,WeatherDisplay:10.37,2013-04-10 14:29:00,
2013-04-10 10:30:00,43.7,43.2,29.90,ENE,68,0.0,0.0,98,0.00,CLR,,0.09,WeatherDisplay:10.37,2013-04-10 14:30:00,
2013-04-10 10:33:00,43.7,43.2,29.90,ESE,112,0.0,0.0,98,0.00,CLR,,0.09,WeatherDisplay:10.37,2013-04-10 14:33:00,
2013-04-10 10:34:00,43.7,43.2,29.90,ESE,112,0.0,0.0,98,0.00,CLR,,0.09,WeatherDisplay:10.37,2013-04-10 14:34:00,
2013-04-10 10:35:00,43.5,43.0,29.90,ESE,112,0.0,0.0,98,0.00,CLR,,0.09,WeatherDisplay:10.37,2013-04-10 14:35:00,
2013-04-10 10:38:00,43.5,43.0,29.90,East,90,0.0,0.0,98,0.00,CLR,,0.09,WeatherDisplay:10.37,2013-04-10 14:38:00,
2013-04-10 10:39:00,43.3,42.8,29.90,ESE,112,0.0,0.0,98,0.00,CLR,,0.09,WeatherDisplay:10.37,2013-04-10 14:39:00,
2013-04-10 10:40:00,43.3,42.8,29.90,SE,135,0.0,0.0,98,0.00,CLR,,0.09,WeatherDisplay:10.37,2013-04-10 14:40:00,
2013-04-10 10:43:00,43.0,42.5,29.93,SSE,158,0.0,0.0,98,0.00,CLR,,0.09,WeatherDisplay:10.37,2013-04-10 14:43:00,
2013-04-10 10:44:00,43.0,42.5,29.93,ESE,112,0.0,0.0,98,0.00,CLR,,0.09,WeatherDisplay:10.37,2013-04-10 14:44:00,
2013-04-10 10:45:00,43.0,42.5,29.93,ESE,112,0.0,0.0,98,0.00,CLR,,0.09,WeatherDisplay:10.37,2013-04-10 14:45:00,
2013-04-10 10:48:00,42.8,42.3,29.93,SE,135,5.8,5.8,98,0.00,CLR,,0.09,WeatherDisplay:10.37,2013-04-10 14:48:00,
2013-04-10 10:49:00,42.8,42.3,29.93,SE,135,5.8,5.8,98,0.00,CLR,,0.09,WeatherDisplay:10.37,2013-04-10 14:49:00,
2013-04-10 10:50:00,42.8,42.3,29.93,SE,135,0.0,1.6,98,0.00,CLR,,0.09,WeatherDisplay:10.37,2013-04-10 14:50:00,
2013-04-10 10:54:00,43.0,42.5,29.93,ESE,112,0.0,0.0,98,0.00,CLR,,0.09,WeatherDisplay:10.37,2013-04-10 14:54:00,
2013-04-10 10:55:00,42.8,42.3,29.93,ESE,112,0.0,0.0,98,0.00,CLR,,0.09,WeatherDisplay:10.37,2013-04-10 14:55:00,
2013-04-10 10:59:00,43.0,42.5,29.90,ESE,112,0.0,0.0,98,0.00,CLR,,0.09,WeatherDisplay:10.37,2013-04-10 14:59:00,
2013-04-10 11:00:00,43.0,42.5,29.90,ESE,112,0.0,0.0,98,0.00,CLR,,0.09,WeatherDisplay:10.37,2013-04-10 15:00:00,
2013-04-10 11:01:00,43.0,42.5,29.90,ESE,112,0.0,0.0,98,0.00,CLR,,0.09,WeatherDisplay:10.37,2013-04-10 15:01:00,
2013-04-10 11:04:00,43.0,42.5,29.90,NE,45,0.0,0.0,98,0.00,CLR,,0.09,WeatherDisplay:10.37,2013-04-10 15:04:00,
2013-04-10 11:05:00,43.0,42.5,29.90,North,0,0.0,0.0,98,0.00,CLR,,0.09,WeatherDisplay:10.37,2013-04-10 15:05:00,
2013-04-10 11:06:00,42.8,42.3,29.90,ESE,112,0.0,0.0,98,0.00,CLR,,0.09,WeatherDisplay:10.37,2013-04-10 15:06:00,
2013-04-10 11:09:00,42.6,42.1,29.90,ESE,112,0.0,0.0,98,0.00,CLR,,0.09,WeatherDisplay:10.37,2013-04-10 15:09:00,
2013-04-10 11:10:00,42.6,42.1,29.90,SE,135,0.0,0.0,98,0.00,CLR,,0.09,WeatherDisplay:10.37,2013-04-10 15:10:00,
2013-04-10 11:11:00,42.4,41.9,29.95,ESE,112,0.0,0.0,98,0.00,CLR,,0.09,WeatherDisplay:10.37,2013-04-10 15:11:00,
2013-04-10 11:14:00,42.3,41.7,29.95,ESE,112,0.0,0.0,98,0.03,RA,,0.12,WeatherDisplay:10.37,2013-04-10 15:14:00,
2013-04-10 11:15:00,42.1,41.6,29.95,ENE,68,0.0,0.0,98,0.03,RA,,0.12,WeatherDisplay:10.37,2013-04-10 15:15:00,
2013-04-10 11:16:00,42.1,41.6,29.95,ESE,112,0.0,0.0,98,0.03,RA,,0.12,WeatherDisplay:10.37,2013-04-10 15:16:00,
2013-04-10 11:20:00,41.9,41.4,29.95,ESE,112,0.0,0.0,98,0.03,RA,,0.12,WeatherDisplay:10.37,2013-04-10 15:20:00,
2013-04-10 11:22:00,41.7,41.2,29.95,ESE,112,1.1,0.0,98,0.03,RA,,0.12,WeatherDisplay:10.37,2013-04-10 15:22:00,
2013-04-10 11:25:00,41.5,41.0,29.95,ESE,112,0.0,0.0,98,0.08,RA,,0.17,WeatherDisplay:10.37,2013-04-10 15:25:00,
2013-04-10 11:27:00,41.5,41.0,29.93,ESE,112,0.0,0.0,98,0.08,RA,,0.17,WeatherDisplay:10.37,2013-04-10 15:27:00,
2013-04-10 11:30:00,41.4,40.8,29.93,ESE,112,0.0,0.0,98,0.08,RA,,0.17,WeatherDisplay:10.37,2013-04-10 15:30:00,
2013-04-10 11:32:00,41.2,40.7,29.93,SSE,158,0.0,0.0,98,0.08,RA,,0.17,WeatherDisplay:10.37,2013-04-10 15:32:00,
2013-04-10 11:35:00,41.2,40.7,29.93,South,180,0.0,0.0,98,0.08,,,0.17,WeatherDisplay:10.37,2013-04-10 15:35:00,
2013-04-10 11:36:00,41.2,40.7,29.93,SSE,158,0.0,0.0,98,0.08,CLR,,0.21,WeatherDisplay:10.37,2013-04-10 15:36:00,
2013-04-10 11:37:00,41.2,40.7,29.93,SSE,158,2.3,0.0,98,0.12,RA,,0.21,WeatherDisplay:10.37,2013-04-10 15:37:00,
2013-04-10 11:40:00,41.2,40.7,29.93,SE,135,1.1,0.0,98,0.12,RA,,0.21,WeatherDisplay:10.37,2013-04-10 15:40:00,
2013-04-10 11:41:00,41.0,40.5,29.93,SE,135,1.1,0.0,98,0.12,RA,,0.21,WeatherDisplay:10.37,2013-04-10 15:41:00,
2013-04-10 11:42:00,41.0,40.5,29.93,ESE,112,0.0,0.0,98,0.12,RA,,0.21,WeatherDisplay:10.37,2013-04-10 15:42:00,
2013-04-10 11:45:00,40.6,40.1,29.93,ENE,68,2.3,2.3,98,0.12,RA,,0.21,WeatherDisplay:10.37,2013-04-10 15:45:00,
2013-04-10 11:47:00,40.6,40.1,29.93,ESE,112,1.1,0.0,98,0.12,,,0.21,WeatherDisplay:10.37,2013-04-10 15:47:00,
2013-04-10 11:50:00,40.5,39.9,29.93,SSE,158,0.0,0.0,98,0.12,CLR,,0.21,WeatherDisplay:10.37,2013-04-10 15:50:00,
2013-04-10 11:52:00,40.5,39.9,29.93,SSE,158,0.0,0.0,98,0.12,CLR,,0.21,WeatherDisplay:10.37,2013-04-10 15:52:00,
2013-04-10 11:55:00,40.5,39.9,29.93,ESE,112,0.0,0.0,98,0.12,CLR,,0.21,WeatherDisplay:10.37,2013-04-10 15:55:00,
2013-04-10 11:56:00,40.5,39.9,29.93,ESE,112,0.0,0.0,98,0.12,CLR,,0.21,WeatherDisplay:10.37,2013-04-10 15:56:00,
2013-04-10 11:58:00,40.5,39.9,29.93,SSE,158,0.0,0.0,98,0.12,CLR,,0.21,WeatherDisplay:10.37,2013-04-10 15:58:00,
2013-04-10 12:00:00,40.5,39.9,29.93,SSW,202,0.0,0.0,98,0.12,CLR,,0.21,WeatherDisplay:10.37,2013-04-10 16:00:00,
2013-04-10 12:02:00,40.6,40.1,29.93,South,180,2.4,0.0,98,0.12,CLR,,0.21,WeatherDisplay:10.37,2013-04-10 16:02:00,
2013-04-10 12:03:00,40.6,40.1,29.93,South,180,2.4,0.0,98,0.12,CLR,,0.21,WeatherDisplay:10.37,2013-04-10 16:03:00,
2013-04-10 12:05:00,40.6,40.1,29.93,SSE,158,2.3,0.0,98,0.12,CLR,,0.21,WeatherDisplay:10.37,2013-04-10 16:05:00,
2013-04-10 12:07:00,40.6,40.1,29.93,SSE,158,0.0,0.0,98,0.12,CLR,,0.21,WeatherDisplay:10.37,2013-04-10 16:07:00,
2013-04-10 12:08:00,40.6,40.1,29.93,SSE,158,0.0,0.0,98,0.12,CLR,,0.21,WeatherDisplay:10.37,2013-04-10 16:08:00,
2013-04-10 12:10:00,40.8,40.3,29.93,SSW,202,0.0,0.0,98,0.12,CLR,,0.21,WeatherDisplay:10.37,2013-04-10 16:10:00,
2013-04-10 12:12:00,40.8,40.3,29.87,ESE,112,0.0,0.0,98,0.09,CLR,,0.21,WeatherDisplay:10.37,2013-04-10 16:12:00,
2013-04-10 12:13:00,40.8,40.3,29.87,SE,135,2.9,0.0,98,0.09,CLR,,0.21,WeatherDisplay:10.37,2013-04-10 16:13:00,
2013-04-10 12:14:00,40.8,40.3,29.87,ESE,112,2.3,2.3,98,0.09,CLR,,0.25,WeatherDisplay:10.37,2013-04-10 16:14:00,
2013-04-10 12:16:00,40.6,40.1,29.87,ENE,68,0.0,0.0,98,0.13,RA,,0.25,WeatherDisplay:10.37,2013-04-10 16:16:00,
2013-04-10 12:17:00,40.8,40.3,29.87,South,180,0.0,0.0,98,0.13,RA,,0.25,WeatherDisplay:10.37,2013-04-10 16:17:00,
2013-04-10 12:18:00,40.8,40.3,29.87,West,270,0.0,0.0,98,0.13,RA,,0.25,WeatherDisplay:10.37,2013-04-10 16:18:00,
2013-04-10 12:19:00,41.0,40.5,29.87,SSW,202,0.0,0.0,98,0.13,RA,,0.25,WeatherDisplay:10.37,2013-04-10 16:19:00,
2013-04-10 12:21:00,41.0,40.5,29.87,SSE,158,0.0,0.0,98,0.13,RA,,0.25,WeatherDisplay:10.37,2013-04-10 16:21:00,
2013-04-10 12:22:00,41.0,40.5,29.87,SE,135,0.0,0.0,98,0.13,RA,,0.25,WeatherDisplay:10.37,2013-04-10 16:22:00,
2013-04-10 12:23:00,41.2,40.7,29.87,SSE,158,0.0,0.0,98,0.08,RA,,0.25,WeatherDisplay:10.37,2013-04-10 16:23:00,
2013-04-10 12:24:00,41.2,40.7,29.87,SE,135,0.0,0.0,98,0.08,,,0.25,WeatherDisplay:10.37,2013-04-10 16:24:00,
2013-04-10 12:26:00,41.2,40.7,29.87,ESE,112,0.0,0.0,98,0.08,,,0.25,WeatherDisplay:10.37,2013-04-10 16:26:00,
2013-04-10 12:28:00,41.5,41.0,29.87,ESE,112,0.0,0.0,98,0.08,CLR,,0.25,WeatherDisplay:10.37,2013-04-10 16:28:00,
2013-04-10 12:30:00,41.9,41.4,29.87,East,90,0.0,0.0,98,0.08,CLR,,0.25,WeatherDisplay:10.37,2013-04-10 16:30:00,
2013-04-10 12:31:00,42.1,41.6,29.87,ESE,112,0.0,0.0,98,0.08,CLR,,0.25,WeatherDisplay:10.37,2013-04-10 16:31:00,
2013-04-10 12:33:00,42.1,41.6,29.87,ESE,112,0.0,0.0,98,0.08,CLR,,0.25,WeatherDisplay:10.37,2013-04-10 16:33:00,
2013-04-10 12:34:00,42.1,41.6,29.87,SSE,158,0.0,0.0,98,0.08,CLR,,0.25,WeatherDisplay:10.37,2013-04-10 16:34:00,
2013-04-10 12:35:00,42.1,41.6,29.87,SE,135,0.0,0.0,98,0.08,CLR,,0.25,WeatherDisplay:10.37,2013-04-10 16:35:00,
2013-04-10 12:37:00,41.9,41.4,29.87,SSE,158,0.0,0.0,98,0.04,CLR,,0.25,WeatherDisplay:10.37,2013-04-10 16:37:00,
2013-04-10 12:39:00,41.7,41.2,29.87,ENE,68,0.0,0.0,98,0.04,CLR,,0.25,WeatherDisplay:10.37,2013-04-10 16:39:00,
2013-04-10 12:40:00,41.7,41.2,29.87,SSE,158,0.0,0.0,98,0.04,CLR,,0.25,WeatherDisplay:10.37,2013-04-10 16:40:00,
2013-04-10 12:42:00,41.9,41.4,29.87,WSW,248,0.0,0.0,98,0.04,CLR,,0.25,WeatherDisplay:10.37,2013-04-10 16:42:00,
2013-04-10 12:44:00,42.3,41.7,29.87,SSE,158,0.0,0.0,98,0.04,CLR,,0.25,WeatherDisplay:10.37,2013-04-10 16:44:00,
2013-04-10 12:45:00,42.3,41.7,29.87,SSE,158,0.0,0.0,98,0.04,CLR,,0.25,WeatherDisplay:10.37,2013-04-10 16:45:00,
2013-04-10 12:47:00,42.3,41.7,29.87,South,180,0.0,0.0,98,0.04,CLR,,0.25,WeatherDisplay:10.37,2013-04-10 16:47:00,
2013-04-10 12:50:00,42.6,42.1,29.87,SE,135,0.0,0.0,98,0.04,CLR,,0.25,WeatherDisplay:10.37,2013-04-10 16:50:00,
2013-04-10 12:52:00,43.0,42.5,29.87,SSE,158,0.0,0.0,98,0.04,CLR,,0.25,WeatherDisplay:10.37,2013-04-10 16:52:00,
2013-04-10 12:55:00,43.0,42.5,29.87,SSE,158,0.0,0.0,98,0.04,CLR,,0.25,WeatherDisplay:10.37,2013-04-10 16:55:00,
2013-04-10 12:58:00,43.3,42.8,29.87,SSE,158,0.0,0.0,98,0.04,CLR,,0.25,WeatherDisplay:10.37,2013-04-10 16:58:00,
2013-04-10 13:00:00,43.5,43.0,29.87,SE,135,0.0,0.0,98,0.04,CLR,,0.25,WeatherDisplay:10.37,2013-04-10 17:00:00,
2013-04-10 13:03:00,43.3,42.8,29.87,SSE,158,0.0,0.0,98,0.04,CLR,,0.25,WeatherDisplay:10.37,2013-04-10 17:03:00,
2013-04-10 13:05:00,43.2,42.6,29.87,ESE,112,0.0,0.0,98,0.04,CLR,,0.25,WeatherDisplay:10.37,2013-04-10 17:05:00,
2013-04-10 13:06:00,43.2,42.6,29.87,ESE,112,0.0,0.0,98,0.04,CLR,,0.25,WeatherDisplay:10.37,2013-04-10 17:06:00,
2013-04-10 13:08:00,43.0,42.5,29.87,SSE,158,0.0,0.0,98,0.04,CLR,,0.25,WeatherDisplay:10.37,2013-04-10 17:08:00,
2013-04-10 13:10:00,42.8,42.3,29.87,ESE,112,0.0,0.0,98,0.04,CLR,,0.25,WeatherDisplay:10.37,2013-04-10 17:10:00,
2013-04-10 13:11:00,42.8,42.3,29.87,ESE,112,0.0,0.0,98,0.04,CLR,,0.25,WeatherDisplay:10.37,2013-04-10 17:11:00,
2013-04-10 13:12:00,42.6,42.1,29.87,SSE,158,0.0,0.0,98,0.04,CLR,,0.25,WeatherDisplay:10.37,2013-04-10 17:12:00,
2013-04-10 13:13:00,42.6,42.1,29.87,SE,135,0.0,0.0,98,0.04,CLR,,0.25,WeatherDisplay:10.37,2013-04-10 17:13:00,
2013-04-10 13:15:00,42.6,42.1,29.87,SE,135,0.0,0.0,98,0.00,CLR,,0.25,WeatherDisplay:10.37,2013-04-10 17:15:00,
2013-04-10 13:16:00,42.4,41.9,29.87,SE,135,0.0,0.0,98,0.00,CLR,,0.25,WeatherDisplay:10.37,2013-04-10 17:16:00,
2013-04-10 13:18:00,42.6,42.1,29.87,SE,135,0.0,0.0,98,0.00,CLR,,0.25,WeatherDisplay:10.37,2013-04-10 17:18:00,
2013-04-10 13:20:00,42.8,42.3,29.87,ESE,112,0.0,0.0,98,0.00,CLR,,0.25,WeatherDisplay:10.37,2013-04-10 17:20:00,
2013-04-10 13:22:00,42.4,41.9,29.87,ESE,112,0.0,0.0,98,0.00,CLR,,0.25,WeatherDisplay:10.37,2013-04-10 17:22:00,
2013-04-10 13:23:00,42.4,41.9,29.87,SSE,158,0.0,0.0,98,0.00,CLR,,0.25,WeatherDisplay:10.37,2013-04-10 17:23:00,
2013-04-10 13:25:00,42.4,41.9,29.87,ESE,112,0.0,0.0,98,0.00,CLR,,0.25,WeatherDisplay:10.37,2013-04-10 17:25:00,
2013-04-10 13:27:00,42.4,41.9,29.87,ESE,112,0.0,0.0,98,0.00,CLR,,0.25,WeatherDisplay:10.37,2013-04-10 17:27:00,
2013-04-10 13:28:00,42.4,41.9,29.87,SSE,158,0.0,0.0,98,0.00,CLR,,0.25,WeatherDisplay:10.37,2013-04-10 17:28:00,
2013-04-10 13:31:00,42.4,41.9,29.87,SSE,158,0.0,0.0,98,0.00,CLR,,0.25,WeatherDisplay:10.37,2013-04-10 17:31:00,
2013-04-10 13:32:00,42.3,41.7,29.87,SE,135,0.0,0.0,98,0.00,CLR,,0.25,WeatherDisplay:10.37,2013-04-10 17:32:00,
2013-04-10 13:33:00,42.1,41.6,29.87,ESE,112,0.0,0.0,98,0.00,CLR,,0.25,WeatherDisplay:10.37,2013-04-10 17:33:00,
2013-04-10 13:36:00,42.1,41.6,29.87,SE,135,0.0,0.0,98,0.00,CLR,,0.25,WeatherDisplay:10.37,2013-04-10 17:36:00,
2013-04-10 13:37:00,42.1,41.6,29.87,ESE,112,0.0,0.0,98,0.00,CLR,,0.25,WeatherDisplay:10.37,2013-04-10 17:37:00,
2013-04-10 13:38:00,42.1,41.6,29.87,ESE,112,0.0,0.0,98,0.00,CLR,,0.25,WeatherDisplay:10.37,2013-04-10 17:38:00,
2013-04-10 13:41:00,42.1,41.6,29.84,SSE,158,0.0,0.0,98,0.00,CLR,,0.25,WeatherDisplay:10.37,2013-04-10 17:41:00,
2013-04-10 13:43:00,41.9,41.4,29.84,ESE,112,0.0,0.0,98,0.00,CLR,,0.25,WeatherDisplay:10.37,2013-04-10 17:43:00,
2013-04-10 13:46:00,42.3,41.7,29.84,SSE,158,0.0,0.0,98,0.00,CLR,,0.25,WeatherDisplay:10.37,2013-04-10 17:46:00,
2013-04-10 13:48:00,42.3,41.7,29.84,ESE,112,0.0,0.0,98,0.00,CLR,,0.25,WeatherDisplay:10.37,2013-04-10 17:48:00,
2013-04-10 13:49:00,42.3,41.7,29.84,ESE,112,0.0,0.0,98,0.00,CLR,,0.25,WeatherDisplay:10.37,2013-04-10 17:49:00,
2013-04-10 13:52:00,42.3,41.7,29.84,SSE,158,0.0,0.0,98,0.00,CLR,,0.25,WeatherDisplay:10.37,2013-04-10 17:52:00,
2013-04-10 13:53:00,42.1,41.6,29.84,SSE,158,0.0,0.0,98,0.00,CLR,,0.25,WeatherDisplay:10.37,2013-04-10 17:53:00,
2013-04-10 13:54:00,42.1,41.6,29.84,SSE,158,0.0,0.0,98,0.00,CLR,,0.25,WeatherDisplay:10.37,2013-04-10 17:54:00,
2013-04-10 13:57:00,41.9,41.4,29.84,ESE,112,0.0,0.0,98,0.00,CLR,,0.25,WeatherDisplay:10.37,2013-04-10 17:57:00,
2013-04-10 13:58:00,41.9,41.4,29.84,ESE,112,0.0,0.0,98,0.00,CLR,,0.25,WeatherDisplay:10.37,2013-04-10 17:58:00,
2013-04-10 13:59:00,41.9,41.4,29.84,ESE,112,0.0,0.0,98,0.00,CLR,,0.25,WeatherDisplay:10.37,2013-04-10 17:59:00,
2013-04-10 14:02:00,41.7,41.2,29.84,SE,135,0.0,0.0,98,0.00,CLR,,0.25,WeatherDisplay:10.37,2013-04-10 18:02:00,
2013-04-10 14:04:00,41.9,41.4,29.84,SE,135,0.0,0.0,98,0.00,CLR,,0.25,WeatherDisplay:10.37,2013-04-10 18:04:00,
2013-04-10 14:07:00,41.7,41.2,29.84,ESE,112,0.0,0.0,98,0.00,CLR,,0.25,WeatherDisplay:10.37,2013-04-10 18:07:00,
2013-04-10 14:09:00,41.5,41.0,29.84,ESE,112,0.0,0.0,98,0.00,CLR,,0.25,WeatherDisplay:10.37,2013-04-10 18:09:00,
2013-04-10 14:12:00,41.5,41.0,29.87,ESE,112,0.0,0.0,98,0.00,CLR,,0.25,WeatherDisplay:10.37,2013-04-10 18:12:00,
2013-04-10 14:14:00,41.5,41.0,29.87,ESE,112,0.0,0.0,98,0.00,CLR,,0.25,WeatherDisplay:10.37,2013-04-10 18:14:00,
2013-04-10 14:15:00,41.5,41.0,29.87,ESE,112,0.0,0.0,98,0.00,CLR,,0.25,WeatherDisplay:10.37,2013-04-10 18:15:00,
2013-04-10 14:18:00,41.4,40.8,29.87,ESE,112,0.0,0.0,98,0.00,CLR,,0.25,WeatherDisplay:10.37,2013-04-10 18:18:00,
2013-04-10 14:19:00,41.4,40.8,29.87,ESE,112,0.0,0.0,98,0.00,CLR,,0.25,WeatherDisplay:10.37,2013-04-10 18:19:00,
2013-04-10 14:20:00,41.4,40.8,29.87,SE,135,0.0,0.0,98,0.00,CLR,,0.25,WeatherDisplay:10.37,2013-04-10 18:20:00,
2013-04-10 14:23:00,41.5,41.0,29.87,ESE,112,0.0,0.0,98,0.00,CLR,,0.25,WeatherDisplay:10.37,2013-04-10 18:23:00,
2013-04-10 14:24:00,41.5,41.0,29.87,ESE,112,0.0,0.0,98,0.00,CLR,,0.25,WeatherDisplay:10.37,2013-04-10 18:24:00,
2013-04-10 14:25:00,41.5,41.0,29.87,SSE,158,0.0,0.0,98,0.00,CLR,,0.25,WeatherDisplay:10.37,2013-04-10 18:25:00,
2013-04-10 14:28:00,41.5,41.0,29.84,ESE,112,0.0,0.0,98,0.00,CLR,,0.25,WeatherDisplay:10.37,2013-04-10 18:28:00,
2013-04-10 14:29:00,41.5,41.0,29.84,ESE,112,0.0,0.0,98,0.00,CLR,,0.25,WeatherDisplay:10.37,2013-04-10 18:29:00,
2013-04-10 14:30:00,41.4,40.8,29.84,ESE,112,0.0,0.0,98,0.00,CLR,,0.25,WeatherDisplay:10.37,2013-04-10 18:30:00,
2013-04-10 14:33:00,41.4,40.8,29.84,SSE,158,0.0,0.0,98,0.00,CLR,,0.25,WeatherDisplay:10.37,2013-04-10 18:33:00,
2013-04-10 14:34:00,41.4,40.8,29.84,ESE,112,0.0,0.0,98,0.00,CLR,,0.25,WeatherDisplay:10.37,2013-04-10 18:34:00,
2013-04-10 14:35:00,41.4,40.8,29.84,ESE,112,0.0,0.0,98,0.00,CLR,,0.25,WeatherDisplay:10.37,2013-04-10 18:35:00,
2013-04-10 14:38:00,41.2,40.7,29.84,SE,135,0.0,0.0,98,0.00,CLR,,0.25,WeatherDisplay:10.37,2013-04-10 18:38:00,
2013-04-10 14:39:00,41.2,40.7,29.84,ESE,112,0.0,0.0,98,0.00,CLR,,0.25,WeatherDisplay:10.37,2013-04-10 18:39:00,
2013-04-10 14:41:00,41.0,40.5,29.84,SSE,158,0.0,0.0,98,0.00,CLR,,0.25,WeatherDisplay:10.37,2013-04-10 18:41:00,
2013-04-10 14:44:00,41.0,40.5,29.84,ESE,112,0.0,0.0,98,0.00,CLR,,0.25,WeatherDisplay:10.37,2013-04-10 18:44:00,
2013-04-10 14:45:00,41.0,40.5,29.84,SE,135,0.0,0.0,98,0.00,CLR,,0.25,WeatherDisplay:10.37,2013-04-10 18:45:00,
2013-04-10 14:47:00,40.8,40.3,29.84,ESE,112,0.0,0.0,98,0.00,CLR,,0.25,WeatherDisplay:10.37,2013-04-10 18:47:00,
2013-04-10 14:49:00,40.8,40.3,29.84,ESE,112,1.1,0.0,98,0.00,CLR,,0.25,WeatherDisplay:10.37,2013-04-10 18:49:00,
2013-04-10 14:50:00,40.8,40.3,29.84,East,90,1.1,0.0,98,0.00,CLR,,0.25,WeatherDisplay:10.37,2013-04-10 18:50:00,
2013-04-10 14:52:00,40.6,40.1,29.84,ESE,112,0.0,0.0,98,0.00,CLR,,0.25,WeatherDisplay:10.37,2013-04-10 18:52:00,
2013-04-10 14:54:00,40.6,40.1,29.84,SE,135,0.0,0.0,98,0.00,CLR,,0.25,WeatherDisplay:10.37,2013-04-10 18:54:00,
2013-04-10 14:55:00,40.6,40.1,29.84,ESE,112,0.0,0.0,98,0.00,CLR,,0.25,WeatherDisplay:10.37,2013-04-10 18:55:00,
2013-04-10 14:57:00,40.5,39.9,29.84,SE,135,0.0,0.0,98,0.00,CLR,,0.25,WeatherDisplay:10.37,2013-04-10 18:57:00,
2013-04-10 14:59:00,40.5,39.9,29.84,ESE,112,0.0,0.0,98,0.00,CLR,,0.25,WeatherDisplay:10.37,2013-04-10 18:59:00,
2013-04-10 15:00:00,40.5,39.9,29.84,ESE,112,0.0,0.0,98,0.00,CLR,,0.25,WeatherDisplay:10.37,2013-04-10 19:00:00,
2013-04-10 15:03:00,40.3,39.8,29.84,ESE,112,0.0,0.0,98,0.00,CLR,,0.25,WeatherDisplay:10.37,2013-04-10 19:03:00,
2013-04-10 15:04:00,40.3,39.8,29.84,ESE,112,0.0,0.0,98,0.00,CLR,,0.25,WeatherDisplay:10.37,2013-04-10 19:04:00,
2013-04-10 15:05:00,40.3,39.8,29.84,SE,135,0.0,0.0,98,0.00,CLR,,0.25,WeatherDisplay:10.37,2013-04-10 19:05:00,
2013-04-10 15:08:00,40.1,39.6,29.84,SE,135,0.0,0.0,98,0.04,RA,,0.29,WeatherDisplay:10.37,2013-04-10 19:08:00,
2013-04-10 15:09:00,40.1,39.6,29.84,SE,135,0.0,0.0,98,0.04,RA,,0.29,WeatherDisplay:10.37,2013-04-10 19:09:00,
2013-04-10 15:10:00,40.1,39.6,29.84,SE,135,0.0,0.0,98,0.04,RA,,0.29,WeatherDisplay:10.37,2013-04-10 19:10:00,
2013-04-10 15:13:00,39.7,39.2,29.84,South,180,6.9,6.9,98,0.04,RA,,0.29,WeatherDisplay:10.37,2013-04-10 19:13:00,
2013-04-10 15:14:00,39.7,39.2,29.84,ESE,112,6.9,6.9,98,0.04,RA,,0.29,WeatherDisplay:10.37,2013-04-10 19:14:00,
2013-04-10 15:15:00,39.7,39.2,29.84,ESE,112,0.0,0.0,98,0.04,RA,,0.29,WeatherDisplay:10.37,2013-04-10 19:15:00,
2013-04-10 15:16:00,39.6,39.0,29.84,ESE,112,0.0,0.0,98,0.04,RA,,0.29,WeatherDisplay:10.37,2013-04-10 19:16:00,
2013-04-10 15:18:00,39.6,39.0,29.84,ESE,112,0.0,0.0,98,0.04,CLR,,0.29,WeatherDisplay:10.37,2013-04-10 19:18:00,
2013-04-10 15:19:00,39.4,38.9,29.84,SSE,158,0.0,0.0,98,0.04,CLR,,0.29,WeatherDisplay:10.37,2013-04-10 19:19:00,
2013-04-10 15:21:00,39.4,38.9,29.84,East,90,0.0,0.0,98,0.04,CLR,,0.29,WeatherDisplay:10.37,2013-04-10 19:21:00,
2013-04-10 15:23:00,39.4,38.9,29.84,South,180,0.0,0.0,98,0.04,CLR,,0.29,WeatherDisplay:10.37,2013-04-10 19:23:00,
2013-04-10 15:24:00,39.4,38.9,29.84,SSE,158,0.0,0.0,98,0.04,CLR,,0.29,WeatherDisplay:10.37,2013-04-10 19:24:00,
2013-04-10 15:26:00,39.4,38.9,29.84,SSW,202,0.0,0.0,98,0.04,CLR,,0.29,WeatherDisplay:10.37,2013-04-10 19:26:00,
2013-04-10 15:28:00,39.4,38.9,29.81,ESE,112,0.0,0.0,98,0.04,CLR,,0.29,WeatherDisplay:10.37,2013-04-10 19:28:00,
2013-04-10 15:29:00,39.4,38.9,29.81,SSE,158,0.0,0.0,98,0.04,CLR,,0.29,WeatherDisplay:10.37,2013-04-10 19:29:00,
2013-04-10 15:31:00,39.4,38.9,29.81,ESE,112,0.0,0.0,98,0.04,CLR,,0.29,WeatherDisplay:10.37,2013-04-10 19:31:00,
2013-04-10 15:32:00,39.4,38.9,29.81,ESE,112,0.0,0.0,98,0.04,CLR,,0.29,WeatherDisplay:10.37,2013-04-10 19:32:00,
2013-04-10 15:33:00,39.4,38.9,29.81,ESE,112,0.0,0.0,98,0.04,CLR,,0.29,WeatherDisplay:10.37,2013-04-10 19:33:00,
2013-04-10 15:35:00,39.4,38.9,29.81,ESE,112,0.0,0.0,98,0.04,CLR,,0.29,WeatherDisplay:10.37,2013-04-10 19:35:00,
2013-04-10 15:36:00,39.2,38.7,29.81,ESE,112,0.0,0.0,98,0.04,CLR,,0.29,WeatherDisplay:10.37,2013-04-10 19:36:00,
2013-04-10 15:37:00,39.2,38.7,29.81,ESE,112,0.0,0.0,98,0.04,CLR,,0.29,WeatherDisplay:10.37,2013-04-10 19:37:00,
2013-04-10 15:38:00,39.4,38.9,29.81,ESE,112,0.0,0.0,98,0.04,CLR,,0.29,WeatherDisplay:10.37,2013-04-10 19:38:00,
2013-04-10 15:40:00,39.2,38.7,29.81,SSE,158,0.0,0.0,98,0.04,CLR,,0.29,WeatherDisplay:10.37,2013-04-10 19:40:00,
2013-04-10 15:41:00,39.2,38.7,29.81,ESE,112,0.0,0.0,98,0.04,CLR,,0.29,WeatherDisplay:10.37,2013-04-10 19:41:00,
2013-04-10 15:43:00,39.2,38.7,29.81,SE,135,0.0,0.0,98,0.04,CLR,,0.29,WeatherDisplay:10.37,2013-04-10 19:43:00,
2013-04-10 15:45:00,39.2,38.7,29.81,ESE,112,0.0,0.0,98,0.08,RA,,0.33,WeatherDisplay:10.37,2013-04-10 19:45:00,
2013-04-10 15:46:00,39.2,38.7,29.81,ESE,112,0.0,0.0,98,0.08,RA,,0.33,WeatherDisplay:10.37,2013-04-10 19:46:00,
2013-04-10 15:48:00,39.4,38.9,29.81,SSE,158,0.0,0.0,98,0.08,RA,,0.33,WeatherDisplay:10.37,2013-04-10 19:48:00,
2013-04-10 15:50:00,39.4,38.9,29.81,ESE,112,0.0,0.0,98,0.08,RA,,0.33,WeatherDisplay:10.37,2013-04-10 19:50:00,
2013-04-10 15:52:00,39.4,38.9,29.81,ESE,112,0.0,0.0,98,0.08,RA,,0.33,WeatherDisplay:10.37,2013-04-10 19:52:00,
2013-04-10 15:53:00,39.4,38.9,29.81,SE,135,0.0,0.0,98,0.08,RA,,0.33,WeatherDisplay:10.37,2013-04-10 19:53:00,
2013-04-10 15:54:00,39.4,38.9,29.81,ESE,112,0.0,0.0,98,0.08,,,0.33,WeatherDisplay:10.37,2013-04-10 19:54:00,
2013-04-10 15:56:00,39.4,38.9,29.81,SSE,158,0.0,0.0,98,0.08,,,0.33,WeatherDisplay:10.37,2013-04-10 19:56:00,
2013-04-10 15:57:00,39.4,38.9,29.78,SE,135,0.0,0.0,98,0.08,CLR,,0.33,WeatherDisplay:10.37,2013-04-10 19:57:00,
2013-04-10 15:59:00,39.4,38.9,29.78,ESE,112,0.0,0.0,98,0.08,CLR,,0.33,WeatherDisplay:10.37,2013-04-10 19:59:00,
2013-04-10 16:02:00,39.4,38.9,29.78,SSE,158,0.0,0.0,98,0.08,CLR,,0.33,WeatherDisplay:10.37,2013-04-10 20:02:00,
2013-04-10 16:04:00,39.4,38.9,29.78,SE,135,0.0,0.0,98,0.08,CLR,,0.33,WeatherDisplay:10.37,2013-04-10 20:04:00,
2013-04-10 16:07:00,39.4,38.9,29.78,ESE,112,0.0,0.0,98,0.04,CLR,,0.33,WeatherDisplay:10.37,2013-04-10 20:07:00,
2013-04-10 16:08:00,39.4,38.9,29.78,ESE,112,0.0,0.0,98,0.04,CLR,,0.33,WeatherDisplay:10.37,2013-04-10 20:08:00,
2013-04-10 16:09:00,39.4,38.9,29.78,East,90,0.0,0.0,98,0.04,CLR,,0.33,WeatherDisplay:10.37,2013-04-10 20:09:00,
2013-04-10 16:13:00,39.6,39.0,29.93,NNE,22,7.4,7.4,98,0.04,CLR,,0.33,WeatherDisplay:10.37,2013-04-10 20:13:00,
2013-04-10 16:14:00,39.6,39.0,29.93,ENE,68,6.9,6.9,98,0.04,CLR,,0.33,WeatherDisplay:10.37,2013-04-10 20:14:00,
2013-04-10 16:15:00,39.6,39.0,29.93,ENE,68,6.9,6.9,98,0.04,CLR,,0.33,WeatherDisplay:10.37,2013-04-10 20:15:00,
2013-04-10 16:18:00,39.2,38.7,29.93,ESE,112,1.1,0.0,98,0.13,RA,,0.43,WeatherDisplay:10.37,2013-04-10 20:18:00,
2013-04-10 16:19:00,39.2,38.7,29.93,ESE,112,0.0,0.0,98,0.17,RA,,0.46,WeatherDisplay:10.37,2013-04-10 20:19:00,
2013-04-10 16:20:00,39.0,38.5,29.93,ESE,112,0.0,0.0,98,0.17,RA,,0.46,WeatherDisplay:10.37,2013-04-10 20:20:00,
2013-04-10 16:23:00,38.8,38.3,29.93,SSE,158,0.0,0.0,98,0.17,RA,,0.46,WeatherDisplay:10.37,2013-04-10 20:23:00,
2013-04-10 16:24:00,38.8,38.3,29.93,ESE,112,0.0,0.0,98,0.17,RA,,0.46,WeatherDisplay:10.37,2013-04-10 20:24:00,
2013-04-10 16:25:00,38.8,38.3,29.93,SSE,158,0.0,0.0,98,0.17,RA,,0.46,WeatherDisplay:10.37,2013-04-10 20:25:00,
2013-04-10 16:28:00,38.7,38.1,29.81,ENE,68,0.0,0.0,98,0.17,RA,,0.46,WeatherDisplay:10.37,2013-04-10 20:28:00,
2013-04-10 16:29:00,38.7,38.1,29.81,SSE,158,0.0,0.0,98,0.17,,,0.46,WeatherDisplay:10.37,2013-04-10 20:29:00,
2013-04-10 16:30:00,38.7,38.1,29.81,SSE,158,0.0,0.0,98,0.17,,,0.46,WeatherDisplay:10.37,2013-04-10 20:30:00,
2013-04-10 16:34:00,38.7,38.1,29.81,SE,135,0.0,0.0,98,0.17,CLR,,0.46,WeatherDisplay:10.37,2013-04-10 20:34:00,
2013-04-10 16:35:00,38.7,38.1,29.81,SSE,158,0.0,0.0,98,0.17,CLR,,0.46,WeatherDisplay:10.37,2013-04-10 20:35:00,
2013-04-10 16:39:00,38.7,38.1,29.81,SSE,158,0.0,0.0,98,0.17,CLR,,0.46,WeatherDisplay:10.37,2013-04-10 20:39:00,
2013-04-10 16:40:00,38.7,38.1,29.81,SSE,158,0.0,0.0,98,0.17,CLR,,0.46,WeatherDisplay:10.37,2013-04-10 20:40:00,
2013-04-10 16:51:00,38.7,38.1,29.75,SE,135,0.0,1.1,98,0.13,CLR,,0.46,WeatherDisplay:10.37,2013-04-10 20:51:00,
2013-04-10 16:52:00,38.7,38.1,29.75,SSE,158,0.0,0.0,98,0.13,CLR,,0.46,WeatherDisplay:10.37,2013-04-10 20:52:00,
2013-04-10 16:56:00,38.8,38.3,29.78,South,180,0.0,0.0,98,0.17,RA,,0.50,WeatherDisplay:10.37,2013-04-10 20:56:00,
2013-04-10 16:57:00,38.8,38.3,29.78,SSE,158,2.6,0.0,98,0.17,RA,,0.50,WeatherDisplay:10.37,2013-04-10 20:57:00,
2013-04-10 17:02:00,39.0,38.5,29.78,ESE,112,0.0,0.0,98,0.17,RA,,0.50,WeatherDisplay:10.37,2013-04-10 21:02:00,
2013-04-10 17:03:00,39.2,38.7,29.78,ESE,112,0.0,0.0,98,0.17,RA,,0.50,WeatherDisplay:10.37,2013-04-10 21:03:00,
2013-04-10 17:07:00,39.6,39.0,29.78,SE,135,0.0,0.0,98,0.17,CLR,,0.50,WeatherDisplay:10.37,2013-04-10 21:07:00,
2013-04-10 17:08:00,39.6,39.0,29.78,SE,135,0.0,0.0,98,0.17,CLR,,0.50,WeatherDisplay:10.37,2013-04-10 21:08:00,
2013-04-10 17:12:00,39.6,39.0,29.81,SE,135,0.0,0.0,98,0.17,CLR,,0.50,WeatherDisplay:10.37,2013-04-10 21:12:00,
2013-04-10 17:13:00,39.6,39.0,29.81,East,90,0.0,0.0,98,0.17,CLR,,0.50,WeatherDisplay:10.37,2013-04-10 21:13:00,
2013-04-10 17:18:00,39.6,39.0,29.81,SSE,158,0.0,0.0,98,0.08,CLR,,0.50,WeatherDisplay:10.37,2013-04-10 21:18:00,
2013-04-10 17:23:00,39.6,39.0,29.81,SSE,158,0.0,0.0,98,0.04,CLR,,0.50,WeatherDisplay:10.37,2013-04-10 21:23:00,
2013-04-10 17:28:00,39.7,39.2,29.81,ESE,112,0.0,0.0,98,0.04,CLR,,0.50,WeatherDisplay:10.37,2013-04-10 21:28:00,
2013-04-10 17:33:00,39.6,39.0,29.81,ESE,112,0.0,0.0,98,0.04,CLR,,0.50,WeatherDisplay:10.37,2013-04-10 21:33:00,
2013-04-10 17:38:00,39.7,39.2,29.81,ESE,112,0.0,0.0,98,0.04,CLR,,0.50,WeatherDisplay:10.37,2013-04-10 21:38:00,
2013-04-10 17:39:00,39.7,39.2,29.81,ESE,112,0.0,0.0,98,0.04,CLR,,0.50,WeatherDisplay:10.37,2013-04-10 21:39:00,
2013-04-10 17:43:00,39.7,39.2,29.78,SSE,158,1.1,0.0,98,0.04,CLR,,0.50,WeatherDisplay:10.37,2013-04-10 21:43:00,
2013-04-10 17:44:00,39.7,39.2,29.78,ESE,112,1.1,0.0,98,0.04,CLR,,0.50,WeatherDisplay:10.37,2013-04-10 21:44:00,
2013-04-10 17:48:00,39.7,39.2,29.78,ESE,112,0.0,0.0,98,0.04,CLR,,0.50,WeatherDisplay:10.37,2013-04-10 21:48:00,
2013-04-10 17:49:00,39.7,39.2,29.78,SSE,158,0.0,0.0,98,0.04,CLR,,0.50,WeatherDisplay:10.37,2013-04-10 21:49:00,
2013-04-10 17:53:00,39.7,39.2,29.78,ENE,68,0.0,0.0,98,0.04,CLR,,0.50,WeatherDisplay:10.37,2013-04-10 21:53:00,
2013-04-10 17:54:00,39.7,39.2,29.78,ESE,112,0.0,0.0,98,0.04,CLR,,0.50,WeatherDisplay:10.37,2013-04-10 21:54:00,
2013-04-10 17:58:00,39.7,39.2,29.81,SSE,158,0.0,0.0,98,0.00,CLR,,0.50,WeatherDisplay:10.37,2013-04-10 21:58:00,
2013-04-10 17:59:00,39.7,39.2,29.81,SE,135,0.0,0.0,98,0.00,CLR,,0.50,WeatherDisplay:10.37,2013-04-10 21:59:00,
2013-04-10 18:03:00,39.9,39.4,29.81,ESE,112,0.0,0.0,98,0.00,CLR,,0.50,WeatherDisplay:10.37,2013-04-10 22:03:00,
2013-04-10 18:04:00,39.9,39.4,29.81,ESE,112,0.0,0.0,98,0.00,CLR,,0.50,WeatherDisplay:10.37,2013-04-10 22:04:00,
2013-04-10 18:09:00,39.9,39.4,29.81,East,90,0.0,0.0,98,0.00,CLR,,0.50,WeatherDisplay:10.37,2013-04-10 22:09:00,
2013-04-10 18:10:00,39.9,39.4,29.81,ESE,112,0.0,0.0,98,0.00,CLR,,0.50,WeatherDisplay:10.37,2013-04-10 22:10:00,
2013-04-10 18:14:00,40.1,39.6,29.81,ESE,112,0.0,0.0,98,0.00,CLR,,0.50,WeatherDisplay:10.37,2013-04-10 22:14:00,
2013-04-10 18:15:00,40.1,39.6,29.81,SE,135,0.0,0.0,98,0.00,CLR,,0.50,WeatherDisplay:10.37,2013-04-10 22:15:00,
2013-04-10 18:19:00,40.1,39.6,29.81,SE,135,0.0,0.0,98,0.00,CLR,,0.50,WeatherDisplay:10.37,2013-04-10 22:19:00,
2013-04-10 18:20:00,40.1,39.6,29.81,ESE,112,0.0,0.0,98,0.00,CLR,,0.50,WeatherDisplay:10.37,2013-04-10 22:20:00,
2013-04-10 18:24:00,40.1,39.6,29.81,ESE,112,0.0,0.0,98,0.00,CLR,,0.50,WeatherDisplay:10.37,2013-04-10 22:24:00,
2013-04-10 18:25:00,40.1,39.6,29.81,ESE,112,0.0,0.0,98,0.00,CLR,,0.50,WeatherDisplay:10.37,2013-04-10 22:25:00,
2013-04-10 18:29:00,40.3,39.8,29.84,ENE,68,0.0,0.0,98,0.00,CLR,,0.50,WeatherDisplay:10.37,2013-04-10 22:29:00,
2013-04-10 18:30:00,40.3,39.8,29.84,ESE,112,0.0,0.0,98,0.00,CLR,,0.50,WeatherDisplay:10.37,2013-04-10 22:30:00,
2013-04-10 18:34:00,40.3,39.8,29.84,ESE,112,0.0,0.0,98,0.00,CLR,,0.50,WeatherDisplay:10.37,2013-04-10 22:34:00,
2013-04-10 18:35:00,40.3,39.8,29.84,ESE,112,0.0,0.0,98,0.00,CLR,,0.50,WeatherDisplay:10.37,2013-04-10 22:35:00,
2013-04-10 18:36:00,40.3,39.8,29.84,East,90,1.1,0.0,98,0.00,CLR,,0.50,WeatherDisplay:10.37,2013-04-10 22:36:00,
2013-04-10 18:39:00,40.3,39.8,29.84,ESE,112,0.0,0.0,98,0.00,CLR,,0.50,WeatherDisplay:10.37,2013-04-10 22:39:00,
2013-04-10 18:40:00,40.3,39.8,29.84,ESE,112,0.0,0.0,98,0.00,CLR,,0.50,WeatherDisplay:10.37,2013-04-10 22:40:00,
2013-04-10 18:41:00,40.3,39.8,29.87,ESE,112,0.0,0.0,98,0.00,CLR,,0.50,WeatherDisplay:10.37,2013-04-10 22:41:00,
2013-04-10 18:42:00,40.3,39.8,29.87,ESE,112,0.0,0.0,98,0.00,CLR,,0.50,WeatherDisplay:10.37,2013-04-10 22:42:00,
2013-04-10 18:44:00,40.3,39.8,29.87,SE,135,0.0,0.0,98,0.00,CLR,,0.50,WeatherDisplay:10.37,2013-04-10 22:44:00,
2013-04-10 18:45:00,40.3,39.8,29.87,SE,135,0.0,0.0,98,0.00,CLR,,0.50,WeatherDisplay:10.37,2013-04-10 22:45:00,
2013-04-10 18:46:00,40.5,39.9,29.87,East,90,0.0,0.0,98,0.00,CLR,,0.50,WeatherDisplay:10.37,2013-04-10 22:46:00,
2013-04-10 18:47:00,40.5,39.9,29.87,ESE,112,0.0,0.0,98,0.00,CLR,,0.50,WeatherDisplay:10.37,2013-04-10 22:47:00,
2013-04-10 18:49:00,40.5,39.9,29.87,ESE,112,0.0,0.0,98,0.00,CLR,,0.50,WeatherDisplay:10.37,2013-04-10 22:49:00,
2013-04-10 18:50:00,40.5,39.9,29.87,SSE,158,0.0,0.0,98,0.00,CLR,,0.50,WeatherDisplay:10.37,2013-04-10 22:50:00,
2013-04-10 18:52:00,40.5,39.9,29.87,ESE,112,0.0,0.0,98,0.00,CLR,,0.50,WeatherDisplay:10.37,2013-04-10 22:52:00,
2013-04-10 18:54:00,40.5,39.9,29.87,ESE,112,0.0,0.0,98,0.00,CLR,,0.50,WeatherDisplay:10.37,2013-04-10 22:54:00,
2013-04-10 18:56:00,40.5,39.9,29.87,ESE,112,0.0,0.0,98,0.00,CLR,,0.50,WeatherDisplay:10.37,2013-04-10 22:56:00,
2013-04-10 18:57:00,40.5,39.9,29.84,ESE,112,0.0,0.0,98,0.00,CLR,,0.50,WeatherDisplay:10.37,2013-04-10 22:57:00,
2013-04-10 18:58:00,40.5,39.9,29.84,ESE,112,0.0,0.0,98,0.00,CLR,,0.50,WeatherDisplay:10.37,2013-04-10 22:58:00,
2013-04-10 18:59:00,40.6,40.1,29.84,ESE,112,0.0,0.0,98,0.00,CLR,,0.50,WeatherDisplay:10.37,2013-04-10 22:59:00,
2013-04-10 19:01:00,40.6,40.1,29.84,ESE,112,0.0,0.0,98,0.00,CLR,,0.50,WeatherDisplay:10.37,2013-04-10 23:01:00,
2013-04-10 19:02:00,40.6,40.1,29.84,ESE,112,0.0,0.0,98,0.00,CLR,,0.50,WeatherDisplay:10.37,2013-04-10 23:02:00,
2013-04-10 19:03:00,40.6,40.1,29.84,ESE,112,0.0,0.0,98,0.00,CLR,,0.50,WeatherDisplay:10.37,2013-04-10 23:03:00,
2013-04-10 19:04:00,40.6,40.1,29.84,ESE,112,0.0,0.0,98,0.00,CLR,,0.50,WeatherDisplay:10.37,2013-04-10 23:04:00,
2013-04-10 19:06:00,40.6,40.1,29.84,ESE,112,0.0,0.0,98,0.00,CLR,,0.50,WeatherDisplay:10.37,2013-04-10 23:06:00,
2013-04-10 19:07:00,40.6,40.1,29.84,ESE,112,0.0,0.0,98,0.00,CLR,,0.50,WeatherDisplay:10.37,2013-04-10 23:07:00,
2013-04-10 19:08:00,40.6,40.1,29.84,ESE,112,0.0,0.0,98,0.00,CLR,,0.50,WeatherDisplay:10.37,2013-04-10 23:08:00,
2013-04-10 19:10:00,40.6,40.1,29.84,ESE,112,0.0,0.0,98,0.00,CLR,,0.50,WeatherDisplay:10.37,2013-04-10 23:10:00,
2013-04-10 19:12:00,40.6,40.1,29.87,ESE,112,0.0,0.0,98,0.00,CLR,,0.50,WeatherDisplay:10.37,2013-04-10 23:12:00,
2013-04-10 19:13:00,40.6,40.1,29.87,ESE,112,0.0,0.0,98,0.00,CLR,,0.50,WeatherDisplay:10.37,2013-04-10 23:13:00,
2013-04-10 19:15:00,40.6,40.1,29.87,ESE,112,0.0,0.0,98,0.00,CLR,,0.50,WeatherDisplay:10.37,2013-04-10 23:15:00,
2013-04-10 19:18:00,40.6,40.1,29.87,ESE,112,2.4,0.0,98,0.00,CLR,,0.50,WeatherDisplay:10.37,2013-04-10 23:18:00,
2013-04-10 19:20:00,40.6,40.1,29.87,ESE,112,2.3,0.0,98,0.00,CLR,,0.50,WeatherDisplay:10.37,2013-04-10 23:20:00,
2013-04-10 19:23:00,40.6,40.1,29.87,East,90,0.0,0.0,98,0.00,CLR,,0.50,WeatherDisplay:10.37,2013-04-10 23:23:00,
2013-04-10 19:25:00,40.6,40.1,29.87,SE,135,0.0,0.0,98,0.00,CLR,,0.50,WeatherDisplay:10.37,2013-04-10 23:25:00,
2013-04-10 19:28:00,40.6,40.1,29.81,ESE,112,0.0,0.0,98,0.00,CLR,,0.50,WeatherDisplay:10.37,2013-04-10 23:28:00,
2013-04-10 19:30:00,40.5,39.9,29.81,ENE,68,0.0,0.0,98,0.00,CLR,,0.50,WeatherDisplay:10.37,2013-04-10 23:30:00,
2013-04-10 19:33:00,40.5,39.9,29.81,SE,135,0.0,0.0,98,0.00,CLR,,0.50,WeatherDisplay:10.37,2013-04-10 23:33:00,
2013-04-10 19:35:00,40.3,39.8,29.81,ESE,112,0.0,0.0,98,0.00,CLR,,0.50,WeatherDisplay:10.37,2013-04-10 23:35:00,
2013-04-10 19:38:00,40.1,39.6,29.81,SE,135,4.6,0.0,98,0.00,CLR,,0.50,WeatherDisplay:10.37,2013-04-10 23:38:00,
2013-04-10 19:40:00,40.1,39.6,29.81,ESE,112,0.0,0.0,98,0.00,CLR,,0.50,WeatherDisplay:10.37,2013-04-10 23:40:00,
2013-04-10 19:43:00,39.9,39.4,29.84,ESE,112,0.0,0.0,98,0.00,CLR,,0.50,WeatherDisplay:10.37,2013-04-10 23:43:00,
2013-04-10 19:45:00,39.9,39.4,29.84,ESE,112,0.0,0.0,98,0.00,CLR,,0.50,WeatherDisplay:10.37,2013-04-10 23:45:00,
2013-04-10 19:48:00,39.7,39.2,29.84,ESE,112,0.0,0.0,98,0.00,CLR,,0.50,WeatherDisplay:10.37,2013-04-10 23:48:00,
2013-04-10 19:49:00,39.7,39.2,29.84,ESE,112,0.0,0.0,98,0.00,CLR,,0.50,WeatherDisplay:10.37,2013-04-10 23:49:00,
2013-04-10 19:50:00,39.7,39.2,29.84,ESE,112,0.0,0.0,98,0.00,CLR,,0.50,WeatherDisplay:10.37,2013-04-10 23:50:00,
2013-04-10 19:53:00,39.7,39.2,29.84,ESE,112,0.0,0.0,98,0.00,CLR,,0.50,WeatherDisplay:10.37,2013-04-10 23:53:00,
2013-04-10 19:54:00,39.7,39.2,29.84,ESE,112,0.0,0.0,98,0.00,CLR,,0.50,WeatherDisplay:10.37,2013-04-10 23:54:00,
2013-04-10 19:55:00,39.7,39.2,29.84,ESE,112,0.0,0.0,98,0.00,CLR,,0.50,WeatherDisplay:10.37,2013-04-10 23:55:00,
2013-04-10 19:58:00,39.7,39.2,29.84,ESE,112,0.0,0.0,98,0.00,CLR,,0.50,WeatherDisplay:10.37,2013-04-10 23:58:00,
2013-04-10 19:59:00,39.7,39.2,29.84,ESE,112,0.0,0.0,98,0.00,CLR,,0.50,WeatherDisplay:10.37,2013-04-10 23:59:00,
2013-04-10 20:00:00,39.7,39.2,29.84,East,90,0.0,0.0,98,0.00,CLR,,0.50,WeatherDisplay:10.37,2013-04-11 00:00:00,
2013-04-10 20:04:00,39.7,39.2,29.84,ESE,112,0.0,0.0,98,0.00,CLR,,0.50,WeatherDisplay:10.37,2013-04-11 00:04:00,
2013-04-10 20:05:00,39.7,39.2,29.84,ESE,112,0.0,0.0,98,0.00,CLR,,0.50,WeatherDisplay:10.37,2013-04-11 00:05:00,
2013-04-10 20:09:00,39.7,39.2,29.84,ESE,112,0.0,0.0,98,0.00,CLR,,0.50,WeatherDisplay:10.37,2013-04-11 00:09:00,
2013-04-10 20:10:00,39.7,39.2,29.84,East,90,0.0,0.0,98,0.00,CLR,,0.50,WeatherDisplay:10.37,2013-04-11 00:10:00,
2013-04-10 20:11:00,39.7,39.2,29.84,East,90,0.0,0.0,98,0.00,CLR,,0.50,WeatherDisplay:10.37,2013-04-11 00:11:00,
2013-04-10 20:14:00,39.7,39.2,29.87,East,90,0.0,0.0,98,0.00,CLR,,0.50,WeatherDisplay:10.37,2013-04-11 00:14:00,
2013-04-10 20:15:00,39.7,39.2,29.87,ESE,112,0.0,0.0,98,0.00,CLR,,0.50,WeatherDisplay:10.37,2013-04-11 00:15:00,
2013-04-10 20:16:00,39.7,39.2,29.87,ESE,112,0.0,0.0,98,0.00,CLR,,0.50,WeatherDisplay:10.37,2013-04-11 00:16:00,
2013-04-10 20:19:00,39.7,39.2,29.87,ESE,112,0.0,0.0,98,0.00,CLR,,0.50,WeatherDisplay:10.37,2013-04-11 00:19:00,
2013-04-10 20:20:00,39.7,39.2,29.87,ESE,112,0.0,0.0,98,0.00,CLR,,0.50,WeatherDisplay:10.37,2013-04-11 00:20:00,
2013-04-10 20:22:00,39.7,39.2,29.87,East,90,0.0,0.0,98,0.00,CLR,,0.50,WeatherDisplay:10.37,2013-04-11 00:22:00,
2013-04-10 20:24:00,39.6,39.0,29.87,ESE,112,0.0,0.0,98,0.00,CLR,,0.50,WeatherDisplay:10.37,2013-04-11 00:24:00,
2013-04-10 20:25:00,39.6,39.0,29.87,East,90,0.0,0.0,98,0.00,CLR,,0.50,WeatherDisplay:10.37,2013-04-11 00:25:00,
2013-04-10 20:27:00,39.6,39.0,29.87,ESE,112,1.1,0.0,98,0.00,CLR,,0.50,WeatherDisplay:10.37,2013-04-11 00:27:00,
2013-04-10 20:29:00,39.6,39.0,29.87,ESE,112,0.0,0.0,98,0.00,CLR,,0.50,WeatherDisplay:10.37,2013-04-11 00:29:00,
2013-04-10 20:30:00,39.6,39.0,29.87,ESE,112,0.0,0.0,98,0.00,CLR,,0.50,WeatherDisplay:10.37,2013-04-11 00:30:00,
2013-04-10 20:32:00,39.4,38.9,29.87,SE,135,0.0,0.0,98,0.00,CLR,,0.50,WeatherDisplay:10.37,2013-04-11 00:32:00,
2013-04-10 20:34:00,39.4,38.9,29.87,ESE,112,0.0,0.0,98,0.00,CLR,,0.50,WeatherDisplay:10.37,2013-04-11 00:34:00,
2013-04-10 20:35:00,39.4,38.9,29.87,ESE,112,0.0,0.0,98,0.00,CLR,,0.50,WeatherDisplay:10.37,2013-04-11 00:35:00,
2013-04-10 20:38:00,39.6,39.0,29.87,SE,135,0.0,0.0,98,0.00,CLR,,0.50,WeatherDisplay:10.37,2013-04-11 00:38:00,
2013-04-10 20:39:00,39.4,38.9,29.87,SE,135,0.0,0.0,98,0.00,CLR,,0.50,WeatherDisplay:10.37,2013-04-11 00:39:00,
2013-04-10 20:40:00,39.4,38.9,29.87,ESE,112,0.0,0.0,98,0.00,CLR,,0.50,WeatherDisplay:10.37,2013-04-11 00:40:00,
2013-04-10 20:42:00,39.4,38.9,29.87,ESE,112,0.0,0.0,98,0.00,CLR,,0.50,WeatherDisplay:10.37,2013-04-11 00:42:00,
2013-04-10 20:43:00,39.4,38.9,29.87,ENE,68,0.0,0.0,98,0.00,CLR,,0.50,WeatherDisplay:10.37,2013-04-11 00:43:00,
2013-04-10 20:44:00,39.4,38.9,29.87,ESE,112,0.0,0.0,98,0.00,CLR,,0.50,WeatherDisplay:10.37,2013-04-11 00:44:00,
2013-04-10 20:45:00,39.6,39.0,29.87,ESE,112,0.0,0.0,98,0.00,CLR,,0.50,WeatherDisplay:10.37,2013-04-11 00:45:00,
2013-04-10 20:47:00,39.6,39.0,29.87,East,90,0.0,0.0,98,0.00,CLR,,0.50,WeatherDisplay:10.37,2013-04-11 00:47:00,
2013-04-10 20:48:00,39.6,39.0,29.87,East,90,0.0,0.0,98,0.00,CLR,,0.50,WeatherDisplay:10.37,2013-04-11 00:48:00,
2013-04-10 20:49:00,39.6,39.0,29.87,SE,135,0.0,0.0,98,0.00,CLR,,0.50,WeatherDisplay:10.37,2013-04-11 00:49:00,
2013-04-10 20:50:00,39.6,39.0,29.87,SE,135,0.0,0.0,98,0.00,CLR,,0.50,WeatherDisplay:10.37,2013-04-11 00:50:00,
2013-04-10 20:52:00,39.6,39.0,29.87,ESE,112,0.0,0.0,98,0.00,CLR,,0.50,WeatherDisplay:10.37,2013-04-11 00:52:00,
2013-04-10 20:53:00,39.6,39.0,29.87,ESE,112,0.0,0.0,98,0.00,CLR,,0.50,WeatherDisplay:10.37,2013-04-11 00:53:00,
2013-04-10 20:54:00,39.6,39.0,29.87,ESE,112,0.0,0.0,98,0.00,CLR,,0.50,WeatherDisplay:10.37,2013-04-11 00:54:00,
2013-04-10 20:55:00,39.6,39.0,29.87,SSE,158,0.0,0.0,98,0.00,CLR,,0.50,WeatherDisplay:10.37,2013-04-11 00:55:00,
2013-04-10 20:57:00,39.6,39.0,29.87,ESE,112,0.0,0.0,98,0.00,CLR,,0.50,WeatherDisplay:10.37,2013-04-11 00:57:00,
2013-04-10 20:58:00,39.6,39.0,29.87,ESE,112,0.0,0.0,98,0.00,CLR,,0.50,WeatherDisplay:10.37,2013-04-11 00:58:00,
2013-04-10 21:00:00,39.6,39.0,29.87,East,90,0.0,0.0,98,0.00,CLR,,0.50,WeatherDisplay:10.37,2013-04-11 01:00:00,
2013-04-10 21:01:00,39.6,39.0,29.87,East,90,0.0,0.0,98,0.00,CLR,,0.50,WeatherDisplay:10.37,2013-04-11 01:01:00,
2013-04-10 21:02:00,39.6,39.0,29.87,ESE,112,0.0,0.0,98,0.00,CLR,,0.50,WeatherDisplay:10.37,2013-04-11 01:02:00,
2013-04-10 21:03:00,39.6,39.0,29.87,ESE,112,0.0,0.0,98,0.00,CLR,,0.50,WeatherDisplay:10.37,2013-04-11 01:03:00,
2013-04-10 21:05:00,39.6,39.0,29.87,ESE,112,0.0,0.0,98,0.00,CLR,,0.50,WeatherDisplay:10.37,2013-04-11 01:05:00,
2013-04-10 21:06:00,39.6,39.0,29.87,ESE,112,0.0,0.0,98,0.00,CLR,,0.50,WeatherDisplay:10.37,2013-04-11 01:06:00,
2013-04-10 21:08:00,39.7,39.2,29.87,ESE,112,0.0,0.0,98,0.00,CLR,,0.50,WeatherDisplay:10.37,2013-04-11 01:08:00,
2013-04-10 21:09:00,39.7,39.2,29.87,ESE,112,0.0,0.0,98,0.00,CLR,,0.50,WeatherDisplay:10.37,2013-04-11 01:09:00,
2013-04-10 21:10:00,39.7,39.2,29.87,ESE,112,0.0,0.0,98,0.00,CLR,,0.50,WeatherDisplay:10.37,2013-04-11 01:10:00,
2013-04-10 21:12:00,39.7,39.2,29.90,East,90,0.0,0.0,98,0.00,CLR,,0.50,WeatherDisplay:10.37,2013-04-11 01:12:00,
2013-04-10 21:13:00,39.7,39.2,29.90,East,90,0.0,0.0,98,0.00,CLR,,0.50,WeatherDisplay:10.37,2013-04-11 01:13:00,
2013-04-10 21:14:00,39.7,39.2,29.90,ESE,112,0.0,0.0,98,0.00,CLR,,0.50,WeatherDisplay:10.37,2013-04-11 01:14:00,
2013-04-10 21:15:00,39.7,39.2,29.90,ESE,112,0.0,0.0,98,0.00,CLR,,0.50,WeatherDisplay:10.37,2013-04-11 01:15:00,
2013-04-10 21:18:00,39.7,39.2,29.90,East,90,0.0,0.0,98,0.00,CLR,,0.50,WeatherDisplay:10.37,2013-04-11 01:18:00,
2013-04-10 21:19:00,39.7,39.2,29.90,East,90,0.0,0.0,98,0.00,CLR,,0.50,WeatherDisplay:10.37,2013-04-11 01:19:00,
2013-04-10 21:20:00,39.7,39.2,29.90,ESE,112,0.0,0.0,98,0.00,CLR,,0.50,WeatherDisplay:10.37,2013-04-11 01:20:00,
2013-04-10 21:23:00,39.7,39.2,29.90,ESE,112,0.0,0.0,98,0.00,CLR,,0.50,WeatherDisplay:10.37,2013-04-11 01:23:00,
2013-04-10 21:24:00,39.7,39.2,29.90,East,90,0.0,0.0,98,0.00,CLR,,0.50,WeatherDisplay:10.37,2013-04-11 01:24:00,
2013-04-10 21:25:00,39.7,39.2,29.90,ESE,112,0.0,0.0,98,0.00,CLR,,0.50,WeatherDisplay:10.37,2013-04-11 01:25:00,
2013-04-10 21:28:00,39.7,39.2,29.93,ESE,112,0.0,0.0,98,0.00,CLR,,0.50,WeatherDisplay:10.37,2013-04-11 01:28:00,
2013-04-10 21:29:00,39.7,39.2,29.93,ENE,68,0.0,0.0,98,0.00,CLR,,0.50,WeatherDisplay:10.37,2013-04-11 01:29:00,
2013-04-10 21:30:00,39.7,39.2,29.93,ENE,68,0.0,0.0,98,0.00,CLR,,0.50,WeatherDisplay:10.37,2013-04-11 01:30:00,
2013-04-10 21:33:00,39.7,39.2,29.93,East,90,0.0,0.0,98,0.00,CLR,,0.50,WeatherDisplay:10.37,2013-04-11 01:33:00,
2013-04-10 21:34:00,39.7,39.2,29.93,ESE,112,0.0,0.0,98,0.00,CLR,,0.50,WeatherDisplay:10.37,2013-04-11 01:34:00,
2013-04-10 21:36:00,39.7,39.2,29.93,ESE,112,0.0,0.0,98,0.00,CLR,,0.50,WeatherDisplay:10.37,2013-04-11 01:36:00,
2013-04-10 21:38:00,39.7,39.2,29.93,ENE,68,0.0,0.0,98,0.00,CLR,,0.50,WeatherDisplay:10.37,2013-04-11 01:38:00,
2013-04-10 21:39:00,39.7,39.2,29.93,East,90,0.0,0.0,98,0.00,CLR,,0.50,WeatherDisplay:10.37,2013-04-11 01:39:00,
2013-04-10 21:41:00,39.7,39.2,29.93,East,90,0.0,0.0,98,0.00,CLR,,0.50,WeatherDisplay:10.37,2013-04-11 01:41:00,
2013-04-10 21:43:00,39.7,39.2,29.93,ESE,112,0.0,0.0,98,0.00,CLR,,0.50,WeatherDisplay:10.37,2013-04-11 01:43:00,
2013-04-10 21:44:00,39.7,39.2,29.93,ESE,112,0.0,0.0,98,0.00,CLR,,0.50,WeatherDisplay:10.37,2013-04-11 01:44:00,
2013-04-10 21:47:00,39.7,39.2,29.93,ESE,112,0.0,0.0,98,0.00,CLR,,0.50,WeatherDisplay:10.37,2013-04-11 01:47:00,
2013-04-10 21:48:00,39.7,39.2,29.93,ESE,112,0.0,0.0,98,0.00,CLR,,0.50,WeatherDisplay:10.37,2013-04-11 01:48:00,
2013-04-10 21:49:00,39.7,39.2,29.93,ESE,112,0.0,0.0,98,0.00,CLR,,0.50,WeatherDisplay:10.37,2013-04-11 01:49:00,
2013-04-10 21:52:00,39.6,39.0,29.93,ESE,112,0.0,0.0,98,0.00,CLR,,0.50,WeatherDisplay:10.37,2013-04-11 01:52:00,
2013-04-10 21:53:00,39.6,39.0,29.93,ESE,112,0.0,0.0,98,0.00,CLR,,0.50,WeatherDisplay:10.37,2013-04-11 01:53:00,
2013-04-10 21:54:00,39.6,39.0,29.93,ESE,112,0.0,0.0,98,0.00,CLR,,0.50,WeatherDisplay:10.37,2013-04-11 01:54:00,
2013-04-10 21:55:00,39.6,39.0,29.93,ESE,112,0.0,0.0,98,0.00,CLR,,0.50,WeatherDisplay:10.37,2013-04-11 01:55:00,
2013-04-10 21:58:00,39.6,39.0,29.90,SE,135,0.0,0.0,98,0.00,CLR,,0.50,WeatherDisplay:10.37,2013-04-11 01:58:00,
2013-04-10 22:00:00,39.6,39.0,29.90,ESE,112,0.0,0.0,98,0.00,CLR,,0.50,WeatherDisplay:10.37,2013-04-11 02:00:00,
2013-04-10 22:03:00,39.6,39.0,29.90,ESE,112,0.0,0.0,98,0.00,CLR,,0.50,WeatherDisplay:10.37,2013-04-11 02:03:00,
2013-04-10 22:05:00,39.6,39.0,29.90,ESE,112,0.0,0.0,98,0.00,CLR,,0.50,WeatherDisplay:10.37,2013-04-11 02:05:00,
2013-04-10 22:08:00,39.6,39.0,29.90,ESE,112,0.0,0.0,98,0.00,CLR,,0.50,WeatherDisplay:10.37,2013-04-11 02:08:00,
2013-04-10 22:09:00,39.6,39.0,29.90,ESE,112,0.0,0.0,98,0.00,CLR,,0.50,WeatherDisplay:10.37,2013-04-11 02:09:00,
2013-04-10 22:10:00,39.4,38.9,29.90,ESE,112,0.0,0.0,98,0.00,CLR,,0.50,WeatherDisplay:10.37,2013-04-11 02:10:00,
2013-04-10 22:13:00,39.4,38.9,29.90,ESE,112,0.0,0.0,98,0.00,CLR,,0.50,WeatherDisplay:10.37,2013-04-11 02:13:00,
2013-04-10 22:14:00,39.4,38.9,29.90,ESE,112,0.0,0.0,98,0.00,CLR,,0.50,WeatherDisplay:10.37,2013-04-11 02:14:00,
2013-04-10 22:15:00,39.4,38.9,29.90,ESE,112,0.0,0.0,98,0.00,CLR,,0.50,WeatherDisplay:10.37,2013-04-11 02:15:00,
2013-04-10 22:17:00,39.4,38.9,29.90,ESE,112,0.0,0.0,98,0.00,CLR,,0.50,WeatherDisplay:10.37,2013-04-11 02:17:00,
2013-04-10 22:18:00,39.4,38.9,29.90,ESE,112,0.0,0.0,98,0.00,CLR,,0.50,WeatherDisplay:10.37,2013-04-11 02:18:00,
2013-04-10 22:19:00,39.4,38.9,29.90,ESE,112,0.0,0.0,98,0.00,CLR,,0.50,WeatherDisplay:10.37,2013-04-11 02:19:00,
2013-04-10 22:20:00,39.4,38.9,29.90,ESE,112,0.0,0.0,98,0.00,CLR,,0.50,WeatherDisplay:10.37,2013-04-11 02:20:00,
2013-04-10 22:22:00,39.4,38.9,29.90,ESE,112,0.0,0.0,98,0.00,CLR,,0.50,WeatherDisplay:10.37,2013-04-11 02:22:00,
2013-04-10 22:23:00,39.4,38.9,29.90,ESE,112,0.0,0.0,98,0.00,CLR,,0.50,WeatherDisplay:10.37,2013-04-11 02:23:00,
2013-04-10 22:24:00,39.4,38.9,29.90,ESE,112,0.0,0.0,98,0.00,CLR,,0.50,WeatherDisplay:10.37,2013-04-11 02:24:00,
2013-04-10 22:25:00,39.4,38.9,29.90,ESE,112,0.0,0.0,98,0.00,CLR,,0.50,WeatherDisplay:10.37,2013-04-11 02:25:00,
2013-04-10 22:27:00,39.4,38.9,29.90,ESE,112,0.0,0.0,98,0.00,CLR,,0.50,WeatherDisplay:10.37,2013-04-11 02:27:00,
2013-04-10 22:29:00,39.4,38.9,29.90,ESE,112,0.0,0.0,98,0.00,CLR,,0.50,WeatherDisplay:10.37,2013-04-11 02:29:00,
2013-04-10 22:30:00,39.4,38.9,29.90,East,90,0.0,0.0,98,0.00,CLR,,0.50,WeatherDisplay:10.37,2013-04-11 02:30:00,
2013-04-10 22:32:00,39.4,38.9,29.90,ESE,112,0.0,0.0,98,0.00,CLR,,0.50,WeatherDisplay:10.37,2013-04-11 02:32:00,
2013-04-10 22:34:00,39.4,38.9,29.90,ESE,112,0.0,0.0,98,0.00,CLR,,0.50,WeatherDisplay:10.37,2013-04-11 02:34:00,
2013-04-10 22:35:00,39.4,38.9,29.90,East,90,0.0,0.0,98,0.00,CLR,,0.50,WeatherDisplay:10.37,2013-04-11 02:35:00,
2013-04-10 22:37:00,39.2,38.7,29.90,East,90,0.0,0.0,98,0.00,CLR,,0.50,WeatherDisplay:10.37,2013-04-11 02:37:00,
2013-04-10 22:39:00,39.4,38.9,29.90,ESE,112,0.0,0.0,98,0.00,CLR,,0.50,WeatherDisplay:10.37,2013-04-11 02:39:00,
2013-04-10 22:40:00,39.4,38.9,29.90,ESE,112,0.0,0.0,98,0.00,CLR,,0.50,WeatherDisplay:10.37,2013-04-11 02:40:00,
2013-04-10 22:43:00,39.4,38.9,29.90,ESE,112,0.0,0.0,98,0.00,CLR,,0.50,WeatherDisplay:10.37,2013-04-11 02:43:00,
2013-04-10 22:44:00,39.4,38.9,29.90,ESE,112,0.0,0.0,98,0.00,CLR,,0.50,WeatherDisplay:10.37,2013-04-11 02:44:00,
2013-04-10 22:45:00,39.2,38.7,29.90,ESE,112,0.0,0.0,98,0.00,CLR,,0.50,WeatherDisplay:10.37,2013-04-11 02:45:00,
2013-04-10 22:48:00,39.4,38.9,29.90,ESE,112,0.0,0.0,98,0.00,CLR,,0.50,WeatherDisplay:10.37,2013-04-11 02:48:00,
2013-04-10 22:49:00,39.4,38.9,29.90,ESE,112,0.0,0.0,98,0.00,CLR,,0.50,WeatherDisplay:10.37,2013-04-11 02:49:00,
2013-04-10 22:50:00,39.2,38.7,29.90,ESE,112,0.0,0.0,98,0.00,CLR,,0.50,WeatherDisplay:10.37,2013-04-11 02:50:00,
2013-04-10 22:53:00,39.2,38.7,29.90,ESE,112,0.0,0.0,98,0.00,CLR,,0.50,WeatherDisplay:10.37,2013-04-11 02:53:00,
2013-04-10 22:54:00,39.2,38.7,29.90,ESE,112,0.0,0.0,98,0.00,CLR,,0.50,WeatherDisplay:10.37,2013-04-11 02:54:00,
2013-04-10 22:55:00,39.2,38.7,29.90,SSW,202,0.0,0.0,98,0.00,CLR,,0.50,WeatherDisplay:10.37,2013-04-11 02:55:00,
2013-04-10 22:56:00,39.2,38.7,29.90,ESE,112,0.0,0.0,98,0.00,CLR,,0.50,WeatherDisplay:10.37,2013-04-11 02:56:00,
2013-04-10 22:58:00,39.2,38.7,29.90,ESE,112,0.0,0.0,98,0.00,CLR,,0.50,WeatherDisplay:10.37,2013-04-11 02:58:00,
2013-04-10 22:59:00,39.2,38.7,29.90,ESE,112,0.0,0.0,98,0.00,CLR,,0.50,WeatherDisplay:10.37,2013-04-11 02:59:00,
2013-04-10 23:00:00,39.2,38.7,29.90,ESE,112,0.0,0.0,98,0.00,CLR,,0.50,WeatherDisplay:10.37,2013-04-11 03:00:00,
2013-04-10 23:01:00,39.2,38.7,29.90,ESE,112,0.0,0.0,98,0.00,CLR,,0.50,WeatherDisplay:10.37,2013-04-11 03:01:00,
2013-04-10 23:03:00,39.2,38.7,29.90,ESE,112,0.0,0.0,98,0.00,CLR,,0.50,WeatherDisplay:10.37,2013-04-11 03:03:00,
2013-04-10 23:04:00,39.2,38.7,29.90,ESE,112,0.0,0.0,98,0.00,CLR,,0.50,WeatherDisplay:10.37,2013-04-11 03:04:00,
2013-04-10 23:05:00,39.2,38.7,29.90,ESE,112,0.0,0.0,98,0.00,CLR,,0.50,WeatherDisplay:10.37,2013-04-11 03:05:00,
2013-04-10 23:07:00,39.2,38.7,29.90,ESE,112,0.0,0.0,98,0.00,CLR,,0.50,WeatherDisplay:10.37,2013-04-11 03:07:00,
2013-04-10 23:09:00,39.2,38.7,29.90,East,90,0.0,0.0,98,0.00,CLR,,0.50,WeatherDisplay:10.37,2013-04-11 03:09:00,
2013-04-10 23:10:00,39.2,38.7,29.90,ESE,112,0.0,0.0,98,0.00,CLR,,0.50,WeatherDisplay:10.37,2013-04-11 03:10:00,
2013-04-10 23:12:00,39.2,38.7,29.90,ESE,112,0.0,0.0,98,0.00,CLR,,0.50,WeatherDisplay:10.37,2013-04-11 03:12:00,
2013-04-10 23:14:00,39.2,38.7,29.90,ESE,112,0.0,0.0,98,0.00,CLR,,0.50,WeatherDisplay:10.37,2013-04-11 03:14:00,
2013-04-10 23:15:00,39.2,38.7,29.90,East,90,0.0,0.0,98,0.00,CLR,,0.50,WeatherDisplay:10.37,2013-04-11 03:15:00,
2013-04-10 23:17:00,39.2,38.7,29.90,East,90,0.0,0.0,98,0.00,CLR,,0.50,WeatherDisplay:10.37,2013-04-11 03:17:00,
2013-04-10 23:19:00,39.2,38.7,29.90,ESE,112,0.0,0.0,98,0.00,CLR,,0.50,WeatherDisplay:10.37,2013-04-11 03:19:00,
2013-04-10 23:20:00,39.2,38.7,29.90,ESE,112,0.0,0.0,98,0.00,CLR,,0.50,WeatherDisplay:10.37,2013-04-11 03:20:00,
2013-04-10 23:22:00,39.2,38.7,29.90,ESE,112,0.0,0.0,98,0.00,CLR,,0.50,WeatherDisplay:10.37,2013-04-11 03:22:00,
2013-04-10 23:24:00,39.2,38.7,29.90,ESE,112,0.0,0.0,98,0.00,CLR,,0.50,WeatherDisplay:10.37,2013-04-11 03:24:00,
2013-04-10 23:25:00,39.2,38.7,29.90,East,90,0.0,0.0,98,0.00,CLR,,0.50,WeatherDisplay:10.37,2013-04-11 03:25:00,
2013-04-10 23:27:00,39.2,38.7,29.90,ESE,112,0.0,0.0,98,0.00,CLR,,0.50,WeatherDisplay:10.37,2013-04-11 03:27:00,
2013-04-10 23:29:00,39.2,38.7,29.90,East,90,0.0,0.0,98,0.00,CLR,,0.50,WeatherDisplay:10.37,2013-04-11 03:29:00,
2013-04-10 23:30:00,39.2,38.7,29.90,East,90,0.0,0.0,98,0.00,CLR,,0.50,WeatherDisplay:10.37,2013-04-11 03:30:00,
2013-04-10 23:32:00,39.2,38.7,29.90,ESE,112,0.0,0.0,98,0.00,CLR,,0.50,WeatherDisplay:10.37,2013-04-11 03:32:00,
2013-04-10 23:35:00,39.2,38.7,29.90,ESE,112,0.0,0.0,98,0.00,CLR,,0.50,WeatherDisplay:10.37,2013-04-11 03:35:00,
2013-04-10 23:38:00,39.2,38.7,29.90,ENE,68,0.0,0.0,98,0.00,CLR,,0.50,WeatherDisplay:10.37,2013-04-11 03:38:00,
2013-04-10 23:40:00,39.2,38.7,29.90,East,90,0.0,0.0,98,0.00,CLR,,0.50,WeatherDisplay:10.37,2013-04-11 03:40:00,
2013-04-10 23:43:00,39.2,38.7,29.90,ESE,112,0.0,0.0,98,0.00,CLR,,0.50,WeatherDisplay:10.37,2013-04-11 03:43:00,
2013-04-10 23:45:00,39.2,38.7,29.90,ESE,112,0.0,0.0,98,0.00,CLR,,0.50,WeatherDisplay:10.37,2013-04-11 03:45:00,
2013-04-10 23:46:00,39.2,38.7,29.90,ESE,112,0.0,0.0,98,0.00,CLR,,0.50,WeatherDisplay:10.37,2013-04-11 03:46:00,
2013-04-10 23:48:00,39.2,38.7,29.90,ESE,112,0.0,0.0,98,0.00,CLR,,0.50,WeatherDisplay:10.37,2013-04-11 03:48:00,
2013-04-10 23:50:00,39.2,38.7,29.90,NE,45,0.0,0.0,98,0.00,CLR,,0.50,WeatherDisplay:10.37,2013-04-11 03:50:00,
2013-04-10 23:52:00,39.2,38.7,29.90,SE,135,0.0,0.0,98,0.00,CLR,,0.50,WeatherDisplay:10.37,2013-04-11 03:52:00,
2013-04-10 23:54:00,39.2,38.7,29.90,SE,135,0.0,0.0,98,0.00,CLR,,0.50,WeatherDisplay:10.37,2013-04-11 03:54:00,
2013-04-10 23:55:00,39.2,38.7,29.90,SE,135,0.0,0.0,98,0.00,CLR,,0.50,WeatherDisplay:10.37,2013-04-11 03:55:00,
2013-04-10 23:58:00,39.2,38.7,29.90,SE,135,0.0,0.0,98,0.00,CLR,,0.50,WeatherDisplay:10.37,2013-04-11 03:58:00,
2013-04-10 23:59:00,39.2,38.7,29.90,SE,135,0.0,0.0,98,0.00,CLR,,0.50,WeatherDisplay:10.37,2013-04-11 03:59:00,